<?xml version="1.0" encoding="UTF-8" standalone="no" ?>
<gpx xmlns="http://www.topografix.com/GPX/1/1" xmlns:xsi="http://www.w3.org/2001/XMLSchema-instance" xsi:schemaLocation="http://www.topografix.com/GPX/1/1 http://www.topografix.com/GPX/1/1/gpx.xsd" version="1.1" creator="VisuGPX - https://www.visugpx.com">
  <metadata>
    <name>05-Verieux ouest burdignes</name>
  </metadata>
  <wpt lat="45.26994" lon="4.56497">
    <ele>893</ele>
    <name><![CDATA[Depart]]></name>
    <type><![CDATA[user]]></type>
  </wpt>
  <trk>
    <name><![CDATA[05-Verieux ouest burdignes]]></name>
    <trkseg>
      <trkpt lat="45.26989" lon="4.56508">
        <ele>859.37</ele>
        <time>2022-06-24T12:39:26Z</time>
      </trkpt>
      <trkpt lat="45.26989" lon="4.56506">
        <ele>859.37</ele>
        <time>2022-06-24T12:39:30Z</time>
      </trkpt>
      <trkpt lat="45.26989" lon="4.56502">
        <ele>859.37</ele>
        <time>2022-06-24T12:39:31Z</time>
      </trkpt>
      <trkpt lat="45.26988" lon="4.56509">
        <ele>859.25</ele>
        <time>2022-06-24T12:39:44Z</time>
      </trkpt>
      <trkpt lat="45.26987" lon="4.56513">
        <ele>859.21</ele>
        <time>2022-06-24T12:39:47Z</time>
      </trkpt>
      <trkpt lat="45.26986" lon="4.56514">
        <ele>859.2</ele>
        <time>2022-06-24T12:39:48Z</time>
      </trkpt>
      <trkpt lat="45.26981" lon="4.56518">
        <ele>858.8</ele>
        <time>2022-06-24T12:39:57Z</time>
      </trkpt>
      <trkpt lat="45.2698" lon="4.56518">
        <ele>858.75</ele>
        <time>2022-06-24T12:39:58Z</time>
      </trkpt>
      <trkpt lat="45.26975" lon="4.56518">
        <ele>858.51</ele>
        <time>2022-06-24T12:40:04Z</time>
      </trkpt>
      <trkpt lat="45.26968" lon="4.56522">
        <ele>858.69</ele>
        <time>2022-06-24T12:40:12Z</time>
      </trkpt>
      <trkpt lat="45.26967" lon="4.56522">
        <ele>858.63</ele>
        <time>2022-06-24T12:40:13Z</time>
      </trkpt>
      <trkpt lat="45.26966" lon="4.56522">
        <ele>858.61</ele>
        <time>2022-06-24T12:40:14Z</time>
      </trkpt>
      <trkpt lat="45.26954" lon="4.56512">
        <ele>858.6</ele>
        <time>2022-06-24T12:40:27Z</time>
      </trkpt>
      <trkpt lat="45.26943" lon="4.565">
        <ele>858.95</ele>
        <time>2022-06-24T12:40:41Z</time>
      </trkpt>
      <trkpt lat="45.2693" lon="4.56489">
        <ele>859.04</ele>
        <time>2022-06-24T12:40:54Z</time>
      </trkpt>
      <trkpt lat="45.26918" lon="4.56478">
        <ele>859.27</ele>
        <time>2022-06-24T12:41:07Z</time>
      </trkpt>
      <trkpt lat="45.26909" lon="4.56472">
        <ele>859.74</ele>
        <time>2022-06-24T12:41:17Z</time>
      </trkpt>
      <trkpt lat="45.26908" lon="4.56471">
        <ele>859.76</ele>
        <time>2022-06-24T12:41:18Z</time>
      </trkpt>
      <trkpt lat="45.26906" lon="4.5647">
        <ele>859.76</ele>
        <time>2022-06-24T12:41:19Z</time>
      </trkpt>
      <trkpt lat="45.26906" lon="4.56469">
        <ele>859.76</ele>
        <time>2022-06-24T12:41:20Z</time>
      </trkpt>
      <trkpt lat="45.26905" lon="4.56468">
        <ele>859.74</ele>
        <time>2022-06-24T12:41:21Z</time>
      </trkpt>
      <trkpt lat="45.26903" lon="4.56467">
        <ele>859.73</ele>
        <time>2022-06-24T12:41:22Z</time>
      </trkpt>
      <trkpt lat="45.26902" lon="4.56466">
        <ele>859.73</ele>
        <time>2022-06-24T12:41:23Z</time>
      </trkpt>
      <trkpt lat="45.26901" lon="4.56465">
        <ele>859.73</ele>
        <time>2022-06-24T12:41:24Z</time>
      </trkpt>
      <trkpt lat="45.26888" lon="4.56448">
        <ele>860.11</ele>
        <time>2022-06-24T12:41:40Z</time>
      </trkpt>
      <trkpt lat="45.26882" lon="4.56438">
        <ele>860</ele>
        <time>2022-06-24T12:41:50Z</time>
      </trkpt>
      <trkpt lat="45.26881" lon="4.56436">
        <ele>859.97</ele>
        <time>2022-06-24T12:41:51Z</time>
      </trkpt>
      <trkpt lat="45.26881" lon="4.56434">
        <ele>859.95</ele>
        <time>2022-06-24T12:41:52Z</time>
      </trkpt>
      <trkpt lat="45.2688" lon="4.56433">
        <ele>859.92</ele>
        <time>2022-06-24T12:41:53Z</time>
      </trkpt>
      <trkpt lat="45.26879" lon="4.56431">
        <ele>859.89</ele>
        <time>2022-06-24T12:41:54Z</time>
      </trkpt>
      <trkpt lat="45.26876" lon="4.56419">
        <ele>859.31</ele>
        <time>2022-06-24T12:42:04Z</time>
      </trkpt>
      <trkpt lat="45.26876" lon="4.56395">
        <ele>859.17</ele>
        <time>2022-06-24T12:42:16Z</time>
      </trkpt>
      <trkpt lat="45.2688" lon="4.56365">
        <ele>858.94</ele>
        <time>2022-06-24T12:42:32Z</time>
      </trkpt>
      <trkpt lat="45.26881" lon="4.56358">
        <ele>858.85</ele>
        <time>2022-06-24T12:42:36Z</time>
      </trkpt>
      <trkpt lat="45.26881" lon="4.56357">
        <ele>858.82</ele>
        <time>2022-06-24T12:42:37Z</time>
      </trkpt>
      <trkpt lat="45.26881" lon="4.56354">
        <ele>858.79</ele>
        <time>2022-06-24T12:42:38Z</time>
      </trkpt>
      <trkpt lat="45.26885" lon="4.56329">
        <ele>858.52</ele>
        <time>2022-06-24T12:42:52Z</time>
      </trkpt>
      <trkpt lat="45.26889" lon="4.56302">
        <ele>857.96</ele>
        <time>2022-06-24T12:43:07Z</time>
      </trkpt>
      <trkpt lat="45.26893" lon="4.56277">
        <ele>856.9</ele>
        <time>2022-06-24T12:43:18Z</time>
      </trkpt>
      <trkpt lat="45.26899" lon="4.56242">
        <ele>856.14</ele>
        <time>2022-06-24T12:43:35Z</time>
      </trkpt>
      <trkpt lat="45.26903" lon="4.56219">
        <ele>855.54</ele>
        <time>2022-06-24T12:43:48Z</time>
      </trkpt>
      <trkpt lat="45.26905" lon="4.56219">
        <ele>855.21</ele>
        <time>2022-06-24T12:44:00Z</time>
      </trkpt>
      <trkpt lat="45.26905" lon="4.56215">
        <ele>855.26</ele>
        <time>2022-06-24T12:44:20Z</time>
      </trkpt>
      <trkpt lat="45.26905" lon="4.56188">
        <ele>854.52</ele>
        <time>2022-06-24T12:44:33Z</time>
      </trkpt>
      <trkpt lat="45.26906" lon="4.56176">
        <ele>854.15</ele>
        <time>2022-06-24T12:44:39Z</time>
      </trkpt>
      <trkpt lat="45.26907" lon="4.5615">
        <ele>853.31</ele>
        <time>2022-06-24T12:44:51Z</time>
      </trkpt>
      <trkpt lat="45.26907" lon="4.5614">
        <ele>853.07</ele>
        <time>2022-06-24T12:44:56Z</time>
      </trkpt>
      <trkpt lat="45.26907" lon="4.56138">
        <ele>853.03</ele>
        <time>2022-06-24T12:44:57Z</time>
      </trkpt>
      <trkpt lat="45.26907" lon="4.56136">
        <ele>852.99</ele>
        <time>2022-06-24T12:44:58Z</time>
      </trkpt>
      <trkpt lat="45.26907" lon="4.56114">
        <ele>851.98</ele>
        <time>2022-06-24T12:45:09Z</time>
      </trkpt>
      <trkpt lat="45.26907" lon="4.56111">
        <ele>851.87</ele>
        <time>2022-06-24T12:45:11Z</time>
      </trkpt>
      <trkpt lat="45.26907" lon="4.56109">
        <ele>851.82</ele>
        <time>2022-06-24T12:45:12Z</time>
      </trkpt>
      <trkpt lat="45.26907" lon="4.56107">
        <ele>851.77</ele>
        <time>2022-06-24T12:45:13Z</time>
      </trkpt>
      <trkpt lat="45.26906" lon="4.56106">
        <ele>851.7</ele>
        <time>2022-06-24T12:45:14Z</time>
      </trkpt>
      <trkpt lat="45.26906" lon="4.56104">
        <ele>851.64</ele>
        <time>2022-06-24T12:45:15Z</time>
      </trkpt>
      <trkpt lat="45.26905" lon="4.56102">
        <ele>851.57</ele>
        <time>2022-06-24T12:45:16Z</time>
      </trkpt>
      <trkpt lat="45.26904" lon="4.561">
        <ele>851.5</ele>
        <time>2022-06-24T12:45:17Z</time>
      </trkpt>
      <trkpt lat="45.26903" lon="4.56098">
        <ele>851.43</ele>
        <time>2022-06-24T12:45:18Z</time>
      </trkpt>
      <trkpt lat="45.26902" lon="4.56097">
        <ele>851.34</ele>
        <time>2022-06-24T12:45:19Z</time>
      </trkpt>
      <trkpt lat="45.26883" lon="4.56091">
        <ele>850.58</ele>
        <time>2022-06-24T12:45:31Z</time>
      </trkpt>
      <trkpt lat="45.26868" lon="4.56104">
        <ele>850.16</ele>
        <time>2022-06-24T12:45:43Z</time>
      </trkpt>
      <trkpt lat="45.26856" lon="4.56128">
        <ele>850.46</ele>
        <time>2022-06-24T12:45:59Z</time>
      </trkpt>
      <trkpt lat="45.26855" lon="4.56129">
        <ele>850.52</ele>
        <time>2022-06-24T12:46:00Z</time>
      </trkpt>
      <trkpt lat="45.26853" lon="4.5613">
        <ele>850.61</ele>
        <time>2022-06-24T12:46:01Z</time>
      </trkpt>
      <trkpt lat="45.26852" lon="4.56131">
        <ele>850.7</ele>
        <time>2022-06-24T12:46:02Z</time>
      </trkpt>
      <trkpt lat="45.26851" lon="4.56132">
        <ele>850.78</ele>
        <time>2022-06-24T12:46:03Z</time>
      </trkpt>
      <trkpt lat="45.26834" lon="4.5614">
        <ele>852</ele>
        <time>2022-06-24T12:46:17Z</time>
      </trkpt>
      <trkpt lat="45.26819" lon="4.56132">
        <ele>853.61</ele>
        <time>2022-06-24T12:46:30Z</time>
      </trkpt>
      <trkpt lat="45.26802" lon="4.56123">
        <ele>855.12</ele>
        <time>2022-06-24T12:46:43Z</time>
      </trkpt>
      <trkpt lat="45.26785" lon="4.56111">
        <ele>857.42</ele>
        <time>2022-06-24T12:46:59Z</time>
      </trkpt>
      <trkpt lat="45.26771" lon="4.56096">
        <ele>859.59</ele>
        <time>2022-06-24T12:47:15Z</time>
      </trkpt>
      <trkpt lat="45.26753" lon="4.56083">
        <ele>861.39</ele>
        <time>2022-06-24T12:47:30Z</time>
      </trkpt>
      <trkpt lat="45.26736" lon="4.56071">
        <ele>863.45</ele>
        <time>2022-06-24T12:47:47Z</time>
      </trkpt>
      <trkpt lat="45.26718" lon="4.56056">
        <ele>865.7</ele>
        <time>2022-06-24T12:48:05Z</time>
      </trkpt>
      <trkpt lat="45.26705" lon="4.56043">
        <ele>867.36</ele>
        <time>2022-06-24T12:48:19Z</time>
      </trkpt>
      <trkpt lat="45.26694" lon="4.56034">
        <ele>868.88</ele>
        <time>2022-06-24T12:48:32Z</time>
      </trkpt>
      <trkpt lat="45.26676" lon="4.56021">
        <ele>871.23</ele>
        <time>2022-06-24T12:48:48Z</time>
      </trkpt>
      <trkpt lat="45.26658" lon="4.56012">
        <ele>873.62</ele>
        <time>2022-06-24T12:49:03Z</time>
      </trkpt>
      <trkpt lat="45.26641" lon="4.56005">
        <ele>875.69</ele>
        <time>2022-06-24T12:49:19Z</time>
      </trkpt>
      <trkpt lat="45.26628" lon="4.56001">
        <ele>877.25</ele>
        <time>2022-06-24T12:49:31Z</time>
      </trkpt>
      <trkpt lat="45.26609" lon="4.55994">
        <ele>879.12</ele>
        <time>2022-06-24T12:49:46Z</time>
      </trkpt>
      <trkpt lat="45.26593" lon="4.55987">
        <ele>880.72</ele>
        <time>2022-06-24T12:50:00Z</time>
      </trkpt>
      <trkpt lat="45.26575" lon="4.55982">
        <ele>882.58</ele>
        <time>2022-06-24T12:50:14Z</time>
      </trkpt>
      <trkpt lat="45.26559" lon="4.55977">
        <ele>884.16</ele>
        <time>2022-06-24T12:50:26Z</time>
      </trkpt>
      <trkpt lat="45.26542" lon="4.55973">
        <ele>885.54</ele>
        <time>2022-06-24T12:50:40Z</time>
      </trkpt>
      <trkpt lat="45.26523" lon="4.55967">
        <ele>886.91</ele>
        <time>2022-06-24T12:50:54Z</time>
      </trkpt>
      <trkpt lat="45.26513" lon="4.55962">
        <ele>887.34</ele>
        <time>2022-06-24T12:51:02Z</time>
      </trkpt>
      <trkpt lat="45.26509" lon="4.55961">
        <ele>887.66</ele>
        <time>2022-06-24T12:51:12Z</time>
      </trkpt>
      <trkpt lat="45.26508" lon="4.55961">
        <ele>887.68</ele>
        <time>2022-06-24T12:51:13Z</time>
      </trkpt>
      <trkpt lat="45.26489" lon="4.55957">
        <ele>888.12</ele>
        <time>2022-06-24T12:51:28Z</time>
      </trkpt>
      <trkpt lat="45.26469" lon="4.55951">
        <ele>888.97</ele>
        <time>2022-06-24T12:51:43Z</time>
      </trkpt>
      <trkpt lat="45.2645" lon="4.55942">
        <ele>889.83</ele>
        <time>2022-06-24T12:51:58Z</time>
      </trkpt>
      <trkpt lat="45.2643" lon="4.55928">
        <ele>891.07</ele>
        <time>2022-06-24T12:52:13Z</time>
      </trkpt>
      <trkpt lat="45.2642" lon="4.55919">
        <ele>892.47</ele>
        <time>2022-06-24T12:52:27Z</time>
      </trkpt>
      <trkpt lat="45.26417" lon="4.55918">
        <ele>892.47</ele>
        <time>2022-06-24T12:52:28Z</time>
      </trkpt>
      <trkpt lat="45.26415" lon="4.55918">
        <ele>892.51</ele>
        <time>2022-06-24T12:52:29Z</time>
      </trkpt>
      <trkpt lat="45.26414" lon="4.55917">
        <ele>892.55</ele>
        <time>2022-06-24T12:52:30Z</time>
      </trkpt>
      <trkpt lat="45.26412" lon="4.55917">
        <ele>892.6</ele>
        <time>2022-06-24T12:52:31Z</time>
      </trkpt>
      <trkpt lat="45.26401" lon="4.55916">
        <ele>893.23</ele>
        <time>2022-06-24T12:52:41Z</time>
      </trkpt>
      <trkpt lat="45.264" lon="4.55916">
        <ele>893.38</ele>
        <time>2022-06-24T12:52:42Z</time>
      </trkpt>
      <trkpt lat="45.26379" lon="4.5592">
        <ele>893.91</ele>
        <time>2022-06-24T12:53:00Z</time>
      </trkpt>
      <trkpt lat="45.26353" lon="4.55924">
        <ele>894.72</ele>
        <time>2022-06-24T12:53:20Z</time>
      </trkpt>
      <trkpt lat="45.26343" lon="4.55925">
        <ele>895.12</ele>
        <time>2022-06-24T12:53:32Z</time>
      </trkpt>
      <trkpt lat="45.26338" lon="4.55927">
        <ele>895.28</ele>
        <time>2022-06-24T12:53:41Z</time>
      </trkpt>
      <trkpt lat="45.26318" lon="4.55933">
        <ele>895.43</ele>
        <time>2022-06-24T12:53:57Z</time>
      </trkpt>
      <trkpt lat="45.26297" lon="4.55935">
        <ele>895.51</ele>
        <time>2022-06-24T12:54:13Z</time>
      </trkpt>
      <trkpt lat="45.26275" lon="4.55934">
        <ele>895.86</ele>
        <time>2022-06-24T12:54:30Z</time>
      </trkpt>
      <trkpt lat="45.26253" lon="4.55929">
        <ele>895.98</ele>
        <time>2022-06-24T12:54:46Z</time>
      </trkpt>
      <trkpt lat="45.26235" lon="4.55924">
        <ele>895.26</ele>
        <time>2022-06-24T12:55:03Z</time>
      </trkpt>
      <trkpt lat="45.26214" lon="4.5592">
        <ele>894.98</ele>
        <time>2022-06-24T12:55:17Z</time>
      </trkpt>
      <trkpt lat="45.26192" lon="4.55907">
        <ele>894.42</ele>
        <time>2022-06-24T12:55:34Z</time>
      </trkpt>
      <trkpt lat="45.26176" lon="4.55886">
        <ele>893.82</ele>
        <time>2022-06-24T12:55:50Z</time>
      </trkpt>
      <trkpt lat="45.2616" lon="4.55877">
        <ele>893.51</ele>
        <time>2022-06-24T12:56:02Z</time>
      </trkpt>
      <trkpt lat="45.26138" lon="4.55872">
        <ele>892.82</ele>
        <time>2022-06-24T12:56:18Z</time>
      </trkpt>
      <trkpt lat="45.26114" lon="4.55876">
        <ele>891.78</ele>
        <time>2022-06-24T12:56:34Z</time>
      </trkpt>
      <trkpt lat="45.26096" lon="4.55884">
        <ele>891.26</ele>
        <time>2022-06-24T12:56:48Z</time>
      </trkpt>
      <trkpt lat="45.26083" lon="4.55887">
        <ele>890.7</ele>
        <time>2022-06-24T12:56:59Z</time>
      </trkpt>
      <trkpt lat="45.26072" lon="4.55896">
        <ele>890.34</ele>
        <time>2022-06-24T12:57:13Z</time>
      </trkpt>
      <trkpt lat="45.26065" lon="4.55901">
        <ele>890.01</ele>
        <time>2022-06-24T12:57:27Z</time>
      </trkpt>
      <trkpt lat="45.26064" lon="4.55902">
        <ele>890.01</ele>
        <time>2022-06-24T12:57:28Z</time>
      </trkpt>
      <trkpt lat="45.26063" lon="4.55902">
        <ele>889.99</ele>
        <time>2022-06-24T12:57:29Z</time>
      </trkpt>
      <trkpt lat="45.26046" lon="4.559">
        <ele>889.48</ele>
        <time>2022-06-24T12:57:43Z</time>
      </trkpt>
      <trkpt lat="45.26038" lon="4.55881">
        <ele>889.96</ele>
        <time>2022-06-24T12:57:55Z</time>
      </trkpt>
      <trkpt lat="45.26036" lon="4.55872">
        <ele>890.4</ele>
        <time>2022-06-24T12:58:00Z</time>
      </trkpt>
      <trkpt lat="45.26036" lon="4.5587">
        <ele>890.52</ele>
        <time>2022-06-24T12:58:01Z</time>
      </trkpt>
      <trkpt lat="45.26035" lon="4.55856">
        <ele>891.17</ele>
        <time>2022-06-24T12:58:11Z</time>
      </trkpt>
      <trkpt lat="45.2603" lon="4.55849">
        <ele>891.24</ele>
        <time>2022-06-24T12:58:16Z</time>
      </trkpt>
      <trkpt lat="45.26028" lon="4.55848">
        <ele>891.24</ele>
        <time>2022-06-24T12:58:17Z</time>
      </trkpt>
      <trkpt lat="45.26012" lon="4.55837">
        <ele>891.13</ele>
        <time>2022-06-24T12:58:30Z</time>
      </trkpt>
      <trkpt lat="45.26015" lon="4.55831">
        <ele>891.31</ele>
        <time>2022-06-24T12:58:40Z</time>
      </trkpt>
      <trkpt lat="45.26027" lon="4.55817">
        <ele>892.25</ele>
        <time>2022-06-24T12:58:55Z</time>
      </trkpt>
      <trkpt lat="45.26042" lon="4.55805">
        <ele>894.82</ele>
        <time>2022-06-24T12:59:11Z</time>
      </trkpt>
      <trkpt lat="45.26042" lon="4.55804">
        <ele>894.97</ele>
        <time>2022-06-24T12:59:12Z</time>
      </trkpt>
      <trkpt lat="45.26053" lon="4.55792">
        <ele>896.42</ele>
        <time>2022-06-24T12:59:25Z</time>
      </trkpt>
      <trkpt lat="45.26053" lon="4.55781">
        <ele>897.01</ele>
        <time>2022-06-24T12:59:32Z</time>
      </trkpt>
      <trkpt lat="45.26054" lon="4.5578">
        <ele>897.09</ele>
        <time>2022-06-24T12:59:33Z</time>
      </trkpt>
      <trkpt lat="45.26054" lon="4.55778">
        <ele>897.17</ele>
        <time>2022-06-24T12:59:34Z</time>
      </trkpt>
      <trkpt lat="45.26054" lon="4.55776">
        <ele>897.24</ele>
        <time>2022-06-24T12:59:35Z</time>
      </trkpt>
      <trkpt lat="45.26058" lon="4.55753">
        <ele>898.42</ele>
        <time>2022-06-24T12:59:50Z</time>
      </trkpt>
      <trkpt lat="45.26062" lon="4.55726">
        <ele>899.51</ele>
        <time>2022-06-24T13:00:06Z</time>
      </trkpt>
      <trkpt lat="45.26067" lon="4.55702">
        <ele>901.02</ele>
        <time>2022-06-24T13:00:22Z</time>
      </trkpt>
      <trkpt lat="45.26073" lon="4.55675">
        <ele>902.67</ele>
        <time>2022-06-24T13:00:39Z</time>
      </trkpt>
      <trkpt lat="45.26077" lon="4.55659">
        <ele>904.03</ele>
        <time>2022-06-24T13:00:51Z</time>
      </trkpt>
      <trkpt lat="45.26079" lon="4.55645">
        <ele>906.43</ele>
        <time>2022-06-24T13:01:07Z</time>
      </trkpt>
      <trkpt lat="45.26084" lon="4.55632">
        <ele>907.68</ele>
        <time>2022-06-24T13:01:21Z</time>
      </trkpt>
      <trkpt lat="45.26084" lon="4.55611">
        <ele>910.44</ele>
        <time>2022-06-24T13:01:39Z</time>
      </trkpt>
      <trkpt lat="45.26083" lon="4.55588">
        <ele>912.37</ele>
        <time>2022-06-24T13:01:55Z</time>
      </trkpt>
      <trkpt lat="45.26077" lon="4.55576">
        <ele>913.68</ele>
        <time>2022-06-24T13:02:05Z</time>
      </trkpt>
      <trkpt lat="45.26071" lon="4.55561">
        <ele>915.09</ele>
        <time>2022-06-24T13:02:16Z</time>
      </trkpt>
      <trkpt lat="45.26064" lon="4.55542">
        <ele>917.1</ele>
        <time>2022-06-24T13:02:31Z</time>
      </trkpt>
      <trkpt lat="45.26058" lon="4.5552">
        <ele>919.66</ele>
        <time>2022-06-24T13:02:47Z</time>
      </trkpt>
      <trkpt lat="45.26052" lon="4.55504">
        <ele>922</ele>
        <time>2022-06-24T13:03:03Z</time>
      </trkpt>
      <trkpt lat="45.26048" lon="4.55489">
        <ele>923.91</ele>
        <time>2022-06-24T13:03:15Z</time>
      </trkpt>
      <trkpt lat="45.26045" lon="4.55468">
        <ele>926.1</ele>
        <time>2022-06-24T13:03:32Z</time>
      </trkpt>
      <trkpt lat="45.26039" lon="4.55445">
        <ele>928.57</ele>
        <time>2022-06-24T13:03:49Z</time>
      </trkpt>
      <trkpt lat="45.26033" lon="4.55425">
        <ele>931.22</ele>
        <time>2022-06-24T13:04:06Z</time>
      </trkpt>
      <trkpt lat="45.26028" lon="4.55408">
        <ele>933.61</ele>
        <time>2022-06-24T13:04:22Z</time>
      </trkpt>
      <trkpt lat="45.26027" lon="4.55385">
        <ele>936.17</ele>
        <time>2022-06-24T13:04:39Z</time>
      </trkpt>
      <trkpt lat="45.26023" lon="4.55363">
        <ele>939.19</ele>
        <time>2022-06-24T13:04:59Z</time>
      </trkpt>
      <trkpt lat="45.26017" lon="4.55344">
        <ele>941.7</ele>
        <time>2022-06-24T13:05:15Z</time>
      </trkpt>
      <trkpt lat="45.26012" lon="4.55328">
        <ele>944.13</ele>
        <time>2022-06-24T13:05:30Z</time>
      </trkpt>
      <trkpt lat="45.25997" lon="4.55309">
        <ele>946.81</ele>
        <time>2022-06-24T13:05:47Z</time>
      </trkpt>
      <trkpt lat="45.25991" lon="4.55288">
        <ele>949.92</ele>
        <time>2022-06-24T13:06:09Z</time>
      </trkpt>
      <trkpt lat="45.25995" lon="4.55277">
        <ele>951.81</ele>
        <time>2022-06-24T13:06:21Z</time>
      </trkpt>
      <trkpt lat="45.2598" lon="4.55244">
        <ele>954.48</ele>
        <time>2022-06-24T13:06:38Z</time>
      </trkpt>
      <trkpt lat="45.25971" lon="4.55219">
        <ele>956.84</ele>
        <time>2022-06-24T13:06:55Z</time>
      </trkpt>
      <trkpt lat="45.25968" lon="4.55192">
        <ele>959.91</ele>
        <time>2022-06-24T13:07:14Z</time>
      </trkpt>
      <trkpt lat="45.25968" lon="4.5517">
        <ele>962.45</ele>
        <time>2022-06-24T13:07:30Z</time>
      </trkpt>
      <trkpt lat="45.2597" lon="4.55148">
        <ele>965.5</ele>
        <time>2022-06-24T13:07:47Z</time>
      </trkpt>
      <trkpt lat="45.25978" lon="4.55131">
        <ele>968.6</ele>
        <time>2022-06-24T13:08:04Z</time>
      </trkpt>
      <trkpt lat="45.25983" lon="4.55117">
        <ele>969.74</ele>
        <time>2022-06-24T13:08:14Z</time>
      </trkpt>
      <trkpt lat="45.25988" lon="4.55096">
        <ele>971.64</ele>
        <time>2022-06-24T13:08:28Z</time>
      </trkpt>
      <trkpt lat="45.25992" lon="4.5508">
        <ele>973.2</ele>
        <time>2022-06-24T13:08:41Z</time>
      </trkpt>
      <trkpt lat="45.25992" lon="4.5508">
        <ele>974.25</ele>
        <time>2022-06-24T13:09:00Z</time>
      </trkpt>
      <trkpt lat="45.25992" lon="4.55077">
        <ele>973.94</ele>
        <time>2022-06-24T13:09:25Z</time>
      </trkpt>
      <trkpt lat="45.25991" lon="4.55076">
        <ele>973.94</ele>
        <time>2022-06-24T13:09:26Z</time>
      </trkpt>
      <trkpt lat="45.25991" lon="4.55072">
        <ele>973.93</ele>
        <time>2022-06-24T13:09:28Z</time>
      </trkpt>
      <trkpt lat="45.2599" lon="4.5507">
        <ele>973.9</ele>
        <time>2022-06-24T13:09:29Z</time>
      </trkpt>
      <trkpt lat="45.2599" lon="4.55069">
        <ele>973.88</ele>
        <time>2022-06-24T13:09:30Z</time>
      </trkpt>
      <trkpt lat="45.25989" lon="4.55067">
        <ele>973.86</ele>
        <time>2022-06-24T13:09:31Z</time>
      </trkpt>
      <trkpt lat="45.25989" lon="4.55065">
        <ele>973.85</ele>
        <time>2022-06-24T13:09:32Z</time>
      </trkpt>
      <trkpt lat="45.25987" lon="4.55041">
        <ele>974.23</ele>
        <time>2022-06-24T13:09:45Z</time>
      </trkpt>
      <trkpt lat="45.2599" lon="4.55016">
        <ele>974.84</ele>
        <time>2022-06-24T13:09:59Z</time>
      </trkpt>
      <trkpt lat="45.25993" lon="4.5499">
        <ele>975.38</ele>
        <time>2022-06-24T13:10:12Z</time>
      </trkpt>
      <trkpt lat="45.25993" lon="4.54965">
        <ele>976.45</ele>
        <time>2022-06-24T13:10:25Z</time>
      </trkpt>
      <trkpt lat="45.25998" lon="4.5494">
        <ele>977.15</ele>
        <time>2022-06-24T13:10:38Z</time>
      </trkpt>
      <trkpt lat="45.26004" lon="4.5493">
        <ele>977.25</ele>
        <time>2022-06-24T13:10:44Z</time>
      </trkpt>
      <trkpt lat="45.26007" lon="4.54925">
        <ele>976.82</ele>
        <time>2022-06-24T13:10:55Z</time>
      </trkpt>
      <trkpt lat="45.2601" lon="4.5492">
        <ele>976.61</ele>
        <time>2022-06-24T13:10:59Z</time>
      </trkpt>
      <trkpt lat="45.26023" lon="4.54902">
        <ele>975.12</ele>
        <time>2022-06-24T13:11:12Z</time>
      </trkpt>
      <trkpt lat="45.26032" lon="4.54882">
        <ele>973.52</ele>
        <time>2022-06-24T13:11:24Z</time>
      </trkpt>
      <trkpt lat="45.26037" lon="4.54853">
        <ele>972.01</ele>
        <time>2022-06-24T13:11:38Z</time>
      </trkpt>
      <trkpt lat="45.26039" lon="4.54827">
        <ele>971.32</ele>
        <time>2022-06-24T13:11:51Z</time>
      </trkpt>
      <trkpt lat="45.26041" lon="4.54796">
        <ele>969.75</ele>
        <time>2022-06-24T13:12:06Z</time>
      </trkpt>
      <trkpt lat="45.26042" lon="4.54758">
        <ele>969.16</ele>
        <time>2022-06-24T13:12:22Z</time>
      </trkpt>
      <trkpt lat="45.26043" lon="4.54728">
        <ele>969.43</ele>
        <time>2022-06-24T13:12:37Z</time>
      </trkpt>
      <trkpt lat="45.26044" lon="4.54701">
        <ele>969.53</ele>
        <time>2022-06-24T13:12:51Z</time>
      </trkpt>
      <trkpt lat="45.26046" lon="4.54689">
        <ele>969.46</ele>
        <time>2022-06-24T13:12:59Z</time>
      </trkpt>
      <trkpt lat="45.26045" lon="4.54683">
        <ele>969.76</ele>
        <time>2022-06-24T13:13:03Z</time>
      </trkpt>
      <trkpt lat="45.26045" lon="4.54681">
        <ele>969.78</ele>
        <time>2022-06-24T13:13:04Z</time>
      </trkpt>
      <trkpt lat="45.26045" lon="4.54678">
        <ele>969.79</ele>
        <time>2022-06-24T13:13:05Z</time>
      </trkpt>
      <trkpt lat="45.26048" lon="4.54646">
        <ele>970.21</ele>
        <time>2022-06-24T13:13:19Z</time>
      </trkpt>
      <trkpt lat="45.26052" lon="4.54635">
        <ele>970.7</ele>
        <time>2022-06-24T13:13:26Z</time>
      </trkpt>
      <trkpt lat="45.26053" lon="4.54634">
        <ele>970.78</ele>
        <time>2022-06-24T13:13:27Z</time>
      </trkpt>
      <trkpt lat="45.26057" lon="4.54612">
        <ele>971.86</ele>
        <time>2022-06-24T13:13:40Z</time>
      </trkpt>
      <trkpt lat="45.26058" lon="4.54592">
        <ele>973.48</ele>
        <time>2022-06-24T13:13:53Z</time>
      </trkpt>
      <trkpt lat="45.26057" lon="4.54572">
        <ele>975.71</ele>
        <time>2022-06-24T13:14:11Z</time>
      </trkpt>
      <trkpt lat="45.26059" lon="4.54572">
        <ele>975.71</ele>
        <time>2022-06-24T13:14:33Z</time>
      </trkpt>
      <trkpt lat="45.2606" lon="4.54573">
        <ele>975.71</ele>
        <time>2022-06-24T13:14:54Z</time>
      </trkpt>
      <trkpt lat="45.26059" lon="4.54573">
        <ele>975.71</ele>
        <time>2022-06-24T13:15:13Z</time>
      </trkpt>
      <trkpt lat="45.26054" lon="4.54557">
        <ele>975.71</ele>
        <time>2022-06-24T13:15:23Z</time>
      </trkpt>
      <trkpt lat="45.26053" lon="4.54551">
        <ele>975.71</ele>
        <time>2022-06-24T13:15:26Z</time>
      </trkpt>
      <trkpt lat="45.26049" lon="4.54524">
        <ele>977.2</ele>
        <time>2022-06-24T13:15:38Z</time>
      </trkpt>
      <trkpt lat="45.26047" lon="4.54499">
        <ele>977.76</ele>
        <time>2022-06-24T13:15:50Z</time>
      </trkpt>
      <trkpt lat="45.26045" lon="4.54468">
        <ele>978.41</ele>
        <time>2022-06-24T13:16:05Z</time>
      </trkpt>
      <trkpt lat="45.26043" lon="4.54449">
        <ele>979.38</ele>
        <time>2022-06-24T13:16:16Z</time>
      </trkpt>
      <trkpt lat="45.26043" lon="4.54432">
        <ele>980.24</ele>
        <time>2022-06-24T13:16:28Z</time>
      </trkpt>
      <trkpt lat="45.26043" lon="4.54429">
        <ele>980.51</ele>
        <time>2022-06-24T13:16:30Z</time>
      </trkpt>
      <trkpt lat="45.26042" lon="4.54427">
        <ele>980.72</ele>
        <time>2022-06-24T13:16:31Z</time>
      </trkpt>
      <trkpt lat="45.26023" lon="4.54403">
        <ele>981.73</ele>
        <time>2022-06-24T13:16:50Z</time>
      </trkpt>
      <trkpt lat="45.26015" lon="4.54394">
        <ele>982.05</ele>
        <time>2022-06-24T13:16:58Z</time>
      </trkpt>
      <trkpt lat="45.25997" lon="4.54372">
        <ele>983.27</ele>
        <time>2022-06-24T13:17:14Z</time>
      </trkpt>
      <trkpt lat="45.25979" lon="4.54349">
        <ele>984.57</ele>
        <time>2022-06-24T13:17:31Z</time>
      </trkpt>
      <trkpt lat="45.25964" lon="4.54334">
        <ele>985.33</ele>
        <time>2022-06-24T13:17:43Z</time>
      </trkpt>
      <trkpt lat="45.25959" lon="4.54327">
        <ele>985.73</ele>
        <time>2022-06-24T13:17:49Z</time>
      </trkpt>
      <trkpt lat="45.25942" lon="4.54312">
        <ele>986.67</ele>
        <time>2022-06-24T13:18:03Z</time>
      </trkpt>
      <trkpt lat="45.25928" lon="4.54296">
        <ele>987.52</ele>
        <time>2022-06-24T13:18:16Z</time>
      </trkpt>
      <trkpt lat="45.25912" lon="4.54275">
        <ele>988.36</ele>
        <time>2022-06-24T13:18:30Z</time>
      </trkpt>
      <trkpt lat="45.25901" lon="4.54255">
        <ele>989.26</ele>
        <time>2022-06-24T13:18:43Z</time>
      </trkpt>
      <trkpt lat="45.25896" lon="4.54243">
        <ele>989.74</ele>
        <time>2022-06-24T13:18:51Z</time>
      </trkpt>
      <trkpt lat="45.25895" lon="4.54242">
        <ele>989.8</ele>
        <time>2022-06-24T13:18:52Z</time>
      </trkpt>
      <trkpt lat="45.25895" lon="4.5424">
        <ele>989.88</ele>
        <time>2022-06-24T13:18:53Z</time>
      </trkpt>
      <trkpt lat="45.25887" lon="4.5422">
        <ele>990.7</ele>
        <time>2022-06-24T13:19:05Z</time>
      </trkpt>
      <trkpt lat="45.25879" lon="4.54193">
        <ele>991.55</ele>
        <time>2022-06-24T13:19:18Z</time>
      </trkpt>
      <trkpt lat="45.25876" lon="4.54179">
        <ele>992.05</ele>
        <time>2022-06-24T13:19:26Z</time>
      </trkpt>
      <trkpt lat="45.25873" lon="4.54159">
        <ele>992.75</ele>
        <time>2022-06-24T13:19:38Z</time>
      </trkpt>
      <trkpt lat="45.25864" lon="4.54131">
        <ele>993.67</ele>
        <time>2022-06-24T13:19:54Z</time>
      </trkpt>
      <trkpt lat="45.25857" lon="4.5411">
        <ele>994.31</ele>
        <time>2022-06-24T13:20:04Z</time>
      </trkpt>
      <trkpt lat="45.25843" lon="4.54082">
        <ele>995.38</ele>
        <time>2022-06-24T13:20:21Z</time>
      </trkpt>
      <trkpt lat="45.25842" lon="4.54075">
        <ele>995.73</ele>
        <time>2022-06-24T13:20:25Z</time>
      </trkpt>
      <trkpt lat="45.25842" lon="4.54073">
        <ele>995.8</ele>
        <time>2022-06-24T13:20:26Z</time>
      </trkpt>
      <trkpt lat="45.25832" lon="4.54044">
        <ele>996.52</ele>
        <time>2022-06-24T13:20:40Z</time>
      </trkpt>
      <trkpt lat="45.25817" lon="4.5401">
        <ele>997.64</ele>
        <time>2022-06-24T13:20:57Z</time>
      </trkpt>
      <trkpt lat="45.25807" lon="4.53985">
        <ele>998.45</ele>
        <time>2022-06-24T13:21:11Z</time>
      </trkpt>
      <trkpt lat="45.25798" lon="4.53961">
        <ele>999.25</ele>
        <time>2022-06-24T13:21:24Z</time>
      </trkpt>
      <trkpt lat="45.25788" lon="4.53935">
        <ele>1000.25</ele>
        <time>2022-06-24T13:21:38Z</time>
      </trkpt>
      <trkpt lat="45.25778" lon="4.53909">
        <ele>1001.32</ele>
        <time>2022-06-24T13:21:53Z</time>
      </trkpt>
      <trkpt lat="45.25771" lon="4.53888">
        <ele>1002.16</ele>
        <time>2022-06-24T13:22:07Z</time>
      </trkpt>
      <trkpt lat="45.25776" lon="4.53883">
        <ele>1002.5</ele>
        <time>2022-06-24T13:22:16Z</time>
      </trkpt>
      <trkpt lat="45.25791" lon="4.53887">
        <ele>1003.55</ele>
        <time>2022-06-24T13:22:29Z</time>
      </trkpt>
      <trkpt lat="45.25804" lon="4.5389">
        <ele>1003.87</ele>
        <time>2022-06-24T13:22:41Z</time>
      </trkpt>
      <trkpt lat="45.25814" lon="4.53892">
        <ele>1005.33</ele>
        <time>2022-06-24T13:22:49Z</time>
      </trkpt>
      <trkpt lat="45.25816" lon="4.53891">
        <ele>1005.33</ele>
        <time>2022-06-24T13:22:50Z</time>
      </trkpt>
      <trkpt lat="45.25823" lon="4.53884">
        <ele>1006.16</ele>
        <time>2022-06-24T13:22:58Z</time>
      </trkpt>
      <trkpt lat="45.25824" lon="4.53882">
        <ele>1006.18</ele>
        <time>2022-06-24T13:22:59Z</time>
      </trkpt>
      <trkpt lat="45.25825" lon="4.53881">
        <ele>1006.18</ele>
        <time>2022-06-24T13:23:00Z</time>
      </trkpt>
      <trkpt lat="45.25833" lon="4.53865">
        <ele>1004.8</ele>
        <time>2022-06-24T13:23:13Z</time>
      </trkpt>
      <trkpt lat="45.25844" lon="4.53857">
        <ele>1002.26</ele>
        <time>2022-06-24T13:23:27Z</time>
      </trkpt>
      <trkpt lat="45.2585" lon="4.53851">
        <ele>1000.53</ele>
        <time>2022-06-24T13:23:37Z</time>
      </trkpt>
      <trkpt lat="45.25858" lon="4.53845">
        <ele>998.37</ele>
        <time>2022-06-24T13:23:50Z</time>
      </trkpt>
      <trkpt lat="45.25873" lon="4.53838">
        <ele>997.04</ele>
        <time>2022-06-24T13:24:01Z</time>
      </trkpt>
      <trkpt lat="45.25883" lon="4.53832">
        <ele>995.37</ele>
        <time>2022-06-24T13:24:11Z</time>
      </trkpt>
      <trkpt lat="45.25898" lon="4.53824">
        <ele>993.78</ele>
        <time>2022-06-24T13:24:22Z</time>
      </trkpt>
      <trkpt lat="45.25916" lon="4.53814">
        <ele>991.77</ele>
        <time>2022-06-24T13:24:36Z</time>
      </trkpt>
      <trkpt lat="45.25931" lon="4.53807">
        <ele>989.86</ele>
        <time>2022-06-24T13:24:51Z</time>
      </trkpt>
      <trkpt lat="45.25943" lon="4.53804">
        <ele>988.9</ele>
        <time>2022-06-24T13:25:00Z</time>
      </trkpt>
      <trkpt lat="45.25951" lon="4.53802">
        <ele>988.03</ele>
        <time>2022-06-24T13:25:14Z</time>
      </trkpt>
      <trkpt lat="45.25973" lon="4.53799">
        <ele>987.27</ele>
        <time>2022-06-24T13:25:26Z</time>
      </trkpt>
      <trkpt lat="45.2599" lon="4.53798">
        <ele>985.09</ele>
        <time>2022-06-24T13:25:39Z</time>
      </trkpt>
      <trkpt lat="45.2601" lon="4.53799">
        <ele>983.83</ele>
        <time>2022-06-24T13:25:51Z</time>
      </trkpt>
      <trkpt lat="45.26018" lon="4.53803">
        <ele>983.04</ele>
        <time>2022-06-24T13:26:06Z</time>
      </trkpt>
      <trkpt lat="45.26019" lon="4.53804">
        <ele>983.02</ele>
        <time>2022-06-24T13:26:07Z</time>
      </trkpt>
      <trkpt lat="45.26051" lon="4.53805">
        <ele>982.74</ele>
        <time>2022-06-24T13:26:19Z</time>
      </trkpt>
      <trkpt lat="45.26076" lon="4.53812">
        <ele>981.4</ele>
        <time>2022-06-24T13:26:35Z</time>
      </trkpt>
      <trkpt lat="45.26077" lon="4.53812">
        <ele>981.34</ele>
        <time>2022-06-24T13:26:36Z</time>
      </trkpt>
      <trkpt lat="45.26086" lon="4.53816">
        <ele>980.27</ele>
        <time>2022-06-24T13:26:47Z</time>
      </trkpt>
      <trkpt lat="45.26095" lon="4.5382">
        <ele>978.91</ele>
        <time>2022-06-24T13:26:56Z</time>
      </trkpt>
      <trkpt lat="45.26097" lon="4.53821">
        <ele>978.05</ele>
        <time>2022-06-24T13:26:58Z</time>
      </trkpt>
      <trkpt lat="45.26115" lon="4.53833">
        <ele>975.18</ele>
        <time>2022-06-24T13:27:11Z</time>
      </trkpt>
      <trkpt lat="45.26129" lon="4.5385">
        <ele>975.02</ele>
        <time>2022-06-24T13:27:23Z</time>
      </trkpt>
      <trkpt lat="45.26138" lon="4.53859">
        <ele>975.13</ele>
        <time>2022-06-24T13:27:31Z</time>
      </trkpt>
      <trkpt lat="45.26148" lon="4.53868">
        <ele>975.2</ele>
        <time>2022-06-24T13:27:39Z</time>
      </trkpt>
      <trkpt lat="45.26151" lon="4.53872">
        <ele>975.3</ele>
        <time>2022-06-24T13:27:43Z</time>
      </trkpt>
      <trkpt lat="45.26156" lon="4.53884">
        <ele>976.62</ele>
        <time>2022-06-24T13:27:49Z</time>
      </trkpt>
      <trkpt lat="45.26159" lon="4.53889">
        <ele>977.13</ele>
        <time>2022-06-24T13:27:54Z</time>
      </trkpt>
      <trkpt lat="45.26168" lon="4.53911">
        <ele>978.41</ele>
        <time>2022-06-24T13:28:06Z</time>
      </trkpt>
      <trkpt lat="45.26179" lon="4.53933">
        <ele>980.45</ele>
        <time>2022-06-24T13:28:22Z</time>
      </trkpt>
      <trkpt lat="45.26188" lon="4.53948">
        <ele>982.54</ele>
        <time>2022-06-24T13:28:40Z</time>
      </trkpt>
      <trkpt lat="45.26202" lon="4.53976">
        <ele>984.39</ele>
        <time>2022-06-24T13:28:57Z</time>
      </trkpt>
      <trkpt lat="45.26213" lon="4.53994">
        <ele>986.02</ele>
        <time>2022-06-24T13:29:13Z</time>
      </trkpt>
      <trkpt lat="45.26227" lon="4.54015">
        <ele>988.81</ele>
        <time>2022-06-24T13:29:32Z</time>
      </trkpt>
      <trkpt lat="45.2624" lon="4.54032">
        <ele>991.26</ele>
        <time>2022-06-24T13:29:51Z</time>
      </trkpt>
      <trkpt lat="45.26257" lon="4.54042">
        <ele>989.42</ele>
        <time>2022-06-24T13:30:07Z</time>
      </trkpt>
      <trkpt lat="45.26284" lon="4.54054">
        <ele>986.48</ele>
        <time>2022-06-24T13:30:27Z</time>
      </trkpt>
      <trkpt lat="45.26301" lon="4.54059">
        <ele>985.56</ele>
        <time>2022-06-24T13:30:38Z</time>
      </trkpt>
      <trkpt lat="45.26304" lon="4.5406">
        <ele>985.39</ele>
        <time>2022-06-24T13:30:40Z</time>
      </trkpt>
      <trkpt lat="45.26305" lon="4.54061">
        <ele>985.24</ele>
        <time>2022-06-24T13:30:41Z</time>
      </trkpt>
      <trkpt lat="45.26306" lon="4.54062">
        <ele>985.09</ele>
        <time>2022-06-24T13:30:42Z</time>
      </trkpt>
      <trkpt lat="45.26318" lon="4.5407">
        <ele>983.11</ele>
        <time>2022-06-24T13:30:55Z</time>
      </trkpt>
      <trkpt lat="45.26325" lon="4.5408">
        <ele>982</ele>
        <time>2022-06-24T13:31:05Z</time>
      </trkpt>
      <trkpt lat="45.26333" lon="4.54083">
        <ele>978.84</ele>
        <time>2022-06-24T13:31:20Z</time>
      </trkpt>
      <trkpt lat="45.26344" lon="4.54095">
        <ele>975.95</ele>
        <time>2022-06-24T13:31:33Z</time>
      </trkpt>
      <trkpt lat="45.26346" lon="4.54118">
        <ele>973.31</ele>
        <time>2022-06-24T13:31:53Z</time>
      </trkpt>
      <trkpt lat="45.26346" lon="4.5413">
        <ele>972.56</ele>
        <time>2022-06-24T13:32:00Z</time>
      </trkpt>
      <trkpt lat="45.26347" lon="4.54138">
        <ele>972.06</ele>
        <time>2022-06-24T13:32:21Z</time>
      </trkpt>
      <trkpt lat="45.26348" lon="4.54141">
        <ele>971.82</ele>
        <time>2022-06-24T13:32:51Z</time>
      </trkpt>
      <trkpt lat="45.26347" lon="4.54144">
        <ele>971.83</ele>
        <time>2022-06-24T13:33:17Z</time>
      </trkpt>
      <trkpt lat="45.26353" lon="4.54148">
        <ele>971.83</ele>
        <time>2022-06-24T13:33:32Z</time>
      </trkpt>
      <trkpt lat="45.26355" lon="4.54152">
        <ele>971.83</ele>
        <time>2022-06-24T13:33:53Z</time>
      </trkpt>
      <trkpt lat="45.26361" lon="4.54168">
        <ele>969.4</ele>
        <time>2022-06-24T13:34:07Z</time>
      </trkpt>
      <trkpt lat="45.26362" lon="4.54172">
        <ele>968.2</ele>
        <time>2022-06-24T13:34:10Z</time>
      </trkpt>
      <trkpt lat="45.26365" lon="4.54184">
        <ele>966.08</ele>
        <time>2022-06-24T13:34:21Z</time>
      </trkpt>
      <trkpt lat="45.2637" lon="4.54205">
        <ele>963</ele>
        <time>2022-06-24T13:34:38Z</time>
      </trkpt>
      <trkpt lat="45.26375" lon="4.54228">
        <ele>960.6</ele>
        <time>2022-06-24T13:34:52Z</time>
      </trkpt>
      <trkpt lat="45.26376" lon="4.54233">
        <ele>960.34</ele>
        <time>2022-06-24T13:34:54Z</time>
      </trkpt>
      <trkpt lat="45.26376" lon="4.54235">
        <ele>960.22</ele>
        <time>2022-06-24T13:34:55Z</time>
      </trkpt>
      <trkpt lat="45.26382" lon="4.54249">
        <ele>958.47</ele>
        <time>2022-06-24T13:35:06Z</time>
      </trkpt>
      <trkpt lat="45.26393" lon="4.54256">
        <ele>955.45</ele>
        <time>2022-06-24T13:35:22Z</time>
      </trkpt>
      <trkpt lat="45.264" lon="4.5426">
        <ele>954.86</ele>
        <time>2022-06-24T13:35:27Z</time>
      </trkpt>
      <trkpt lat="45.26402" lon="4.5426">
        <ele>954.79</ele>
        <time>2022-06-24T13:35:28Z</time>
      </trkpt>
      <trkpt lat="45.26404" lon="4.5426">
        <ele>954.69</ele>
        <time>2022-06-24T13:35:29Z</time>
      </trkpt>
      <trkpt lat="45.26425" lon="4.54263">
        <ele>953.57</ele>
        <time>2022-06-24T13:35:42Z</time>
      </trkpt>
      <trkpt lat="45.26442" lon="4.54257">
        <ele>952.01</ele>
        <time>2022-06-24T13:35:56Z</time>
      </trkpt>
      <trkpt lat="45.26461" lon="4.54252">
        <ele>950.84</ele>
        <time>2022-06-24T13:36:10Z</time>
      </trkpt>
      <trkpt lat="45.26477" lon="4.54255">
        <ele>949.11</ele>
        <time>2022-06-24T13:36:22Z</time>
      </trkpt>
      <trkpt lat="45.26478" lon="4.54255">
        <ele>948.96</ele>
        <time>2022-06-24T13:36:23Z</time>
      </trkpt>
      <trkpt lat="45.26483" lon="4.54262">
        <ele>948.34</ele>
        <time>2022-06-24T13:36:32Z</time>
      </trkpt>
      <trkpt lat="45.26499" lon="4.54284">
        <ele>947.19</ele>
        <time>2022-06-24T13:36:46Z</time>
      </trkpt>
      <trkpt lat="45.26507" lon="4.54293">
        <ele>946.56</ele>
        <time>2022-06-24T13:36:55Z</time>
      </trkpt>
      <trkpt lat="45.26516" lon="4.54296">
        <ele>945.87</ele>
        <time>2022-06-24T13:37:04Z</time>
      </trkpt>
      <trkpt lat="45.26524" lon="4.54297">
        <ele>945.42</ele>
        <time>2022-06-24T13:37:10Z</time>
      </trkpt>
      <trkpt lat="45.26539" lon="4.54295">
        <ele>945.16</ele>
        <time>2022-06-24T13:37:19Z</time>
      </trkpt>
      <trkpt lat="45.2655" lon="4.54289">
        <ele>944.89</ele>
        <time>2022-06-24T13:37:26Z</time>
      </trkpt>
      <trkpt lat="45.26551" lon="4.54289">
        <ele>944.86</ele>
        <time>2022-06-24T13:37:27Z</time>
      </trkpt>
      <trkpt lat="45.26553" lon="4.54288">
        <ele>944.83</ele>
        <time>2022-06-24T13:37:28Z</time>
      </trkpt>
      <trkpt lat="45.26554" lon="4.54287">
        <ele>944.79</ele>
        <time>2022-06-24T13:37:29Z</time>
      </trkpt>
      <trkpt lat="45.26556" lon="4.54286">
        <ele>944.76</ele>
        <time>2022-06-24T13:37:30Z</time>
      </trkpt>
      <trkpt lat="45.26558" lon="4.54286">
        <ele>944.73</ele>
        <time>2022-06-24T13:37:31Z</time>
      </trkpt>
      <trkpt lat="45.2656" lon="4.54286">
        <ele>944.72</ele>
        <time>2022-06-24T13:37:32Z</time>
      </trkpt>
      <trkpt lat="45.26562" lon="4.54285">
        <ele>944.72</ele>
        <time>2022-06-24T13:37:33Z</time>
      </trkpt>
      <trkpt lat="45.2658" lon="4.54283">
        <ele>945.08</ele>
        <time>2022-06-24T13:37:45Z</time>
      </trkpt>
      <trkpt lat="45.26591" lon="4.54291">
        <ele>946</ele>
        <time>2022-06-24T13:37:56Z</time>
      </trkpt>
      <trkpt lat="45.26593" lon="4.54291">
        <ele>946.31</ele>
        <time>2022-06-24T13:37:58Z</time>
      </trkpt>
      <trkpt lat="45.26606" lon="4.5429">
        <ele>947.27</ele>
        <time>2022-06-24T13:38:11Z</time>
      </trkpt>
      <trkpt lat="45.26612" lon="4.5429">
        <ele>947.33</ele>
        <time>2022-06-24T13:38:15Z</time>
      </trkpt>
      <trkpt lat="45.2662" lon="4.54292">
        <ele>947.05</ele>
        <time>2022-06-24T13:38:25Z</time>
      </trkpt>
      <trkpt lat="45.26623" lon="4.54291">
        <ele>947.06</ele>
        <time>2022-06-24T13:38:28Z</time>
      </trkpt>
      <trkpt lat="45.26641" lon="4.54277">
        <ele>947.55</ele>
        <time>2022-06-24T13:38:42Z</time>
      </trkpt>
      <trkpt lat="45.26653" lon="4.54268">
        <ele>947.4</ele>
        <time>2022-06-24T13:38:55Z</time>
      </trkpt>
      <trkpt lat="45.26664" lon="4.5427">
        <ele>948.38</ele>
        <time>2022-06-24T13:39:10Z</time>
      </trkpt>
      <trkpt lat="45.26675" lon="4.54282">
        <ele>949.53</ele>
        <time>2022-06-24T13:39:21Z</time>
      </trkpt>
      <trkpt lat="45.26688" lon="4.54276">
        <ele>951.25</ele>
        <time>2022-06-24T13:39:31Z</time>
      </trkpt>
      <trkpt lat="45.2669" lon="4.54276">
        <ele>951.44</ele>
        <time>2022-06-24T13:39:32Z</time>
      </trkpt>
      <trkpt lat="45.26696" lon="4.54272">
        <ele>952.37</ele>
        <time>2022-06-24T13:39:37Z</time>
      </trkpt>
      <trkpt lat="45.26697" lon="4.5427">
        <ele>952.48</ele>
        <time>2022-06-24T13:39:38Z</time>
      </trkpt>
      <trkpt lat="45.26697" lon="4.54265">
        <ele>952.69</ele>
        <time>2022-06-24T13:39:40Z</time>
      </trkpt>
      <trkpt lat="45.26705" lon="4.5425">
        <ele>953.47</ele>
        <time>2022-06-24T13:39:50Z</time>
      </trkpt>
      <trkpt lat="45.26721" lon="4.54236">
        <ele>951.64</ele>
        <time>2022-06-24T13:40:05Z</time>
      </trkpt>
      <trkpt lat="45.26738" lon="4.54237">
        <ele>949.67</ele>
        <time>2022-06-24T13:40:19Z</time>
      </trkpt>
      <trkpt lat="45.26749" lon="4.54238">
        <ele>948.13</ele>
        <time>2022-06-24T13:40:27Z</time>
      </trkpt>
      <trkpt lat="45.2675" lon="4.54239">
        <ele>947.99</ele>
        <time>2022-06-24T13:40:28Z</time>
      </trkpt>
      <trkpt lat="45.26762" lon="4.5426">
        <ele>946.33</ele>
        <time>2022-06-24T13:40:43Z</time>
      </trkpt>
      <trkpt lat="45.26768" lon="4.54283">
        <ele>946.03</ele>
        <time>2022-06-24T13:40:55Z</time>
      </trkpt>
      <trkpt lat="45.26768" lon="4.54302">
        <ele>946.28</ele>
        <time>2022-06-24T13:41:04Z</time>
      </trkpt>
      <trkpt lat="45.26768" lon="4.54304">
        <ele>946.33</ele>
        <time>2022-06-24T13:41:05Z</time>
      </trkpt>
      <trkpt lat="45.26768" lon="4.54306">
        <ele>946.37</ele>
        <time>2022-06-24T13:41:06Z</time>
      </trkpt>
      <trkpt lat="45.26767" lon="4.54308">
        <ele>946.39</ele>
        <time>2022-06-24T13:41:07Z</time>
      </trkpt>
      <trkpt lat="45.26767" lon="4.54309">
        <ele>946.4</ele>
        <time>2022-06-24T13:41:08Z</time>
      </trkpt>
      <trkpt lat="45.26766" lon="4.54311">
        <ele>946.4</ele>
        <time>2022-06-24T13:41:09Z</time>
      </trkpt>
      <trkpt lat="45.26766" lon="4.54313">
        <ele>946.4</ele>
        <time>2022-06-24T13:41:10Z</time>
      </trkpt>
      <trkpt lat="45.26766" lon="4.54315">
        <ele>946.38</ele>
        <time>2022-06-24T13:41:11Z</time>
      </trkpt>
      <trkpt lat="45.26766" lon="4.54316">
        <ele>946.34</ele>
        <time>2022-06-24T13:41:12Z</time>
      </trkpt>
      <trkpt lat="45.26766" lon="4.54318">
        <ele>946.3</ele>
        <time>2022-06-24T13:41:13Z</time>
      </trkpt>
      <trkpt lat="45.26767" lon="4.5433">
        <ele>946.17</ele>
        <time>2022-06-24T13:41:23Z</time>
      </trkpt>
      <trkpt lat="45.26768" lon="4.54331">
        <ele>946.18</ele>
        <time>2022-06-24T13:41:24Z</time>
      </trkpt>
      <trkpt lat="45.26768" lon="4.54333">
        <ele>946.18</ele>
        <time>2022-06-24T13:41:25Z</time>
      </trkpt>
      <trkpt lat="45.26769" lon="4.54334">
        <ele>946.18</ele>
        <time>2022-06-24T13:41:26Z</time>
      </trkpt>
      <trkpt lat="45.2677" lon="4.54336">
        <ele>946.12</ele>
        <time>2022-06-24T13:41:27Z</time>
      </trkpt>
      <trkpt lat="45.2677" lon="4.54337">
        <ele>946.02</ele>
        <time>2022-06-24T13:41:28Z</time>
      </trkpt>
      <trkpt lat="45.2677" lon="4.54339">
        <ele>945.9</ele>
        <time>2022-06-24T13:41:29Z</time>
      </trkpt>
      <trkpt lat="45.26769" lon="4.54341">
        <ele>945.76</ele>
        <time>2022-06-24T13:41:30Z</time>
      </trkpt>
      <trkpt lat="45.26769" lon="4.54343">
        <ele>945.61</ele>
        <time>2022-06-24T13:41:31Z</time>
      </trkpt>
      <trkpt lat="45.26764" lon="4.54362">
        <ele>943.28</ele>
        <time>2022-06-24T13:41:43Z</time>
      </trkpt>
      <trkpt lat="45.26764" lon="4.54366">
        <ele>942.97</ele>
        <time>2022-06-24T13:41:45Z</time>
      </trkpt>
      <trkpt lat="45.26771" lon="4.54374">
        <ele>942.52</ele>
        <time>2022-06-24T13:41:54Z</time>
      </trkpt>
      <trkpt lat="45.26787" lon="4.54395">
        <ele>940.83</ele>
        <time>2022-06-24T13:42:08Z</time>
      </trkpt>
      <trkpt lat="45.26801" lon="4.5441">
        <ele>940.72</ele>
        <time>2022-06-24T13:42:21Z</time>
      </trkpt>
      <trkpt lat="45.26805" lon="4.54418">
        <ele>940.83</ele>
        <time>2022-06-24T13:42:29Z</time>
      </trkpt>
      <trkpt lat="45.26806" lon="4.5442">
        <ele>940.94</ele>
        <time>2022-06-24T13:42:30Z</time>
      </trkpt>
      <trkpt lat="45.26807" lon="4.54422">
        <ele>941.16</ele>
        <time>2022-06-24T13:42:31Z</time>
      </trkpt>
      <trkpt lat="45.26808" lon="4.54423">
        <ele>941.44</ele>
        <time>2022-06-24T13:42:32Z</time>
      </trkpt>
      <trkpt lat="45.26808" lon="4.54425">
        <ele>941.82</ele>
        <time>2022-06-24T13:42:33Z</time>
      </trkpt>
      <trkpt lat="45.26809" lon="4.54427">
        <ele>941.9</ele>
        <time>2022-06-24T13:42:34Z</time>
      </trkpt>
      <trkpt lat="45.26809" lon="4.54429">
        <ele>941.95</ele>
        <time>2022-06-24T13:42:35Z</time>
      </trkpt>
      <trkpt lat="45.26815" lon="4.54447">
        <ele>942.37</ele>
        <time>2022-06-24T13:42:46Z</time>
      </trkpt>
      <trkpt lat="45.26829" lon="4.54464">
        <ele>943.59</ele>
        <time>2022-06-24T13:43:01Z</time>
      </trkpt>
      <trkpt lat="45.2684" lon="4.54476">
        <ele>944.56</ele>
        <time>2022-06-24T13:43:14Z</time>
      </trkpt>
      <trkpt lat="45.26849" lon="4.54488">
        <ele>945.64</ele>
        <time>2022-06-24T13:43:23Z</time>
      </trkpt>
      <trkpt lat="45.26854" lon="4.54511">
        <ele>947.83</ele>
        <time>2022-06-24T13:43:38Z</time>
      </trkpt>
      <trkpt lat="45.26859" lon="4.54528">
        <ele>949.27</ele>
        <time>2022-06-24T13:43:49Z</time>
      </trkpt>
      <trkpt lat="45.26862" lon="4.5454">
        <ele>949.83</ele>
        <time>2022-06-24T13:43:57Z</time>
      </trkpt>
      <trkpt lat="45.26866" lon="4.54547">
        <ele>950.29</ele>
        <time>2022-06-24T13:44:02Z</time>
      </trkpt>
      <trkpt lat="45.26879" lon="4.54562">
        <ele>951.27</ele>
        <time>2022-06-24T13:44:13Z</time>
      </trkpt>
      <trkpt lat="45.26892" lon="4.54574">
        <ele>951.65</ele>
        <time>2022-06-24T13:44:26Z</time>
      </trkpt>
      <trkpt lat="45.26896" lon="4.54576">
        <ele>951.86</ele>
        <time>2022-06-24T13:44:30Z</time>
      </trkpt>
      <trkpt lat="45.26897" lon="4.54576">
        <ele>951.91</ele>
        <time>2022-06-24T13:44:31Z</time>
      </trkpt>
      <trkpt lat="45.26898" lon="4.54577">
        <ele>951.96</ele>
        <time>2022-06-24T13:44:32Z</time>
      </trkpt>
      <trkpt lat="45.26899" lon="4.54578">
        <ele>951.99</ele>
        <time>2022-06-24T13:44:33Z</time>
      </trkpt>
      <trkpt lat="45.269" lon="4.54579">
        <ele>952.01</ele>
        <time>2022-06-24T13:44:34Z</time>
      </trkpt>
      <trkpt lat="45.26901" lon="4.5458">
        <ele>952.05</ele>
        <time>2022-06-24T13:44:35Z</time>
      </trkpt>
      <trkpt lat="45.26902" lon="4.54581">
        <ele>952.1</ele>
        <time>2022-06-24T13:44:36Z</time>
      </trkpt>
      <trkpt lat="45.26911" lon="4.54597">
        <ele>952.59</ele>
        <time>2022-06-24T13:44:48Z</time>
      </trkpt>
      <trkpt lat="45.26925" lon="4.5462">
        <ele>953.36</ele>
        <time>2022-06-24T13:45:04Z</time>
      </trkpt>
      <trkpt lat="45.26937" lon="4.5464">
        <ele>953.55</ele>
        <time>2022-06-24T13:45:18Z</time>
      </trkpt>
      <trkpt lat="45.26951" lon="4.54658">
        <ele>952.73</ele>
        <time>2022-06-24T13:45:32Z</time>
      </trkpt>
      <trkpt lat="45.26964" lon="4.54671">
        <ele>951.97</ele>
        <time>2022-06-24T13:45:44Z</time>
      </trkpt>
      <trkpt lat="45.26976" lon="4.54682">
        <ele>951.21</ele>
        <time>2022-06-24T13:45:57Z</time>
      </trkpt>
      <trkpt lat="45.26998" lon="4.54682">
        <ele>949.62</ele>
        <time>2022-06-24T13:46:15Z</time>
      </trkpt>
      <trkpt lat="45.27021" lon="4.54692">
        <ele>949.09</ele>
        <time>2022-06-24T13:46:31Z</time>
      </trkpt>
      <trkpt lat="45.27045" lon="4.54705">
        <ele>949.94</ele>
        <time>2022-06-24T13:46:48Z</time>
      </trkpt>
      <trkpt lat="45.27066" lon="4.54715">
        <ele>951.33</ele>
        <time>2022-06-24T13:47:04Z</time>
      </trkpt>
      <trkpt lat="45.27086" lon="4.54727">
        <ele>951.35</ele>
        <time>2022-06-24T13:47:20Z</time>
      </trkpt>
      <trkpt lat="45.27091" lon="4.54739">
        <ele>951.51</ele>
        <time>2022-06-24T13:47:28Z</time>
      </trkpt>
      <trkpt lat="45.271" lon="4.54755">
        <ele>951.95</ele>
        <time>2022-06-24T13:47:42Z</time>
      </trkpt>
      <trkpt lat="45.2711" lon="4.54763">
        <ele>951.6</ele>
        <time>2022-06-24T13:47:52Z</time>
      </trkpt>
      <trkpt lat="45.27121" lon="4.54772">
        <ele>950.76</ele>
        <time>2022-06-24T13:48:01Z</time>
      </trkpt>
      <trkpt lat="45.27128" lon="4.5478">
        <ele>950.64</ele>
        <time>2022-06-24T13:48:08Z</time>
      </trkpt>
      <trkpt lat="45.27137" lon="4.54797">
        <ele>951.09</ele>
        <time>2022-06-24T13:48:20Z</time>
      </trkpt>
      <trkpt lat="45.27137" lon="4.548">
        <ele>951.13</ele>
        <time>2022-06-24T13:48:23Z</time>
      </trkpt>
      <trkpt lat="45.27156" lon="4.54816">
        <ele>950.57</ele>
        <time>2022-06-24T13:48:37Z</time>
      </trkpt>
      <trkpt lat="45.27168" lon="4.54828">
        <ele>950.29</ele>
        <time>2022-06-24T13:48:47Z</time>
      </trkpt>
      <trkpt lat="45.27182" lon="4.54839">
        <ele>949</ele>
        <time>2022-06-24T13:48:59Z</time>
      </trkpt>
      <trkpt lat="45.27208" lon="4.54849">
        <ele>947.73</ele>
        <time>2022-06-24T13:49:14Z</time>
      </trkpt>
      <trkpt lat="45.27229" lon="4.54858">
        <ele>945.83</ele>
        <time>2022-06-24T13:49:30Z</time>
      </trkpt>
      <trkpt lat="45.27232" lon="4.5486">
        <ele>945.71</ele>
        <time>2022-06-24T13:49:31Z</time>
      </trkpt>
      <trkpt lat="45.27247" lon="4.5487">
        <ele>943.92</ele>
        <time>2022-06-24T13:49:43Z</time>
      </trkpt>
      <trkpt lat="45.27258" lon="4.54877">
        <ele>941.69</ele>
        <time>2022-06-24T13:49:57Z</time>
      </trkpt>
      <trkpt lat="45.27266" lon="4.54886">
        <ele>941.2</ele>
        <time>2022-06-24T13:50:06Z</time>
      </trkpt>
      <trkpt lat="45.27276" lon="4.54894">
        <ele>939.13</ele>
        <time>2022-06-24T13:50:18Z</time>
      </trkpt>
      <trkpt lat="45.27292" lon="4.54914">
        <ele>937.21</ele>
        <time>2022-06-24T13:50:31Z</time>
      </trkpt>
      <trkpt lat="45.27304" lon="4.54928">
        <ele>935.65</ele>
        <time>2022-06-24T13:50:40Z</time>
      </trkpt>
      <trkpt lat="45.2732" lon="4.54945">
        <ele>934.79</ele>
        <time>2022-06-24T13:50:52Z</time>
      </trkpt>
      <trkpt lat="45.27328" lon="4.54954">
        <ele>934.39</ele>
        <time>2022-06-24T13:50:57Z</time>
      </trkpt>
      <trkpt lat="45.27349" lon="4.5497">
        <ele>933.23</ele>
        <time>2022-06-24T13:51:13Z</time>
      </trkpt>
      <trkpt lat="45.27358" lon="4.54976">
        <ele>931.87</ele>
        <time>2022-06-24T13:51:28Z</time>
      </trkpt>
      <trkpt lat="45.27366" lon="4.5498">
        <ele>931.14</ele>
        <time>2022-06-24T13:51:44Z</time>
      </trkpt>
      <trkpt lat="45.27378" lon="4.5499">
        <ele>930.2</ele>
        <time>2022-06-24T13:52:00Z</time>
      </trkpt>
      <trkpt lat="45.27381" lon="4.54992">
        <ele>929.85</ele>
        <time>2022-06-24T13:52:03Z</time>
      </trkpt>
      <trkpt lat="45.2741" lon="4.55008">
        <ele>929.23</ele>
        <time>2022-06-24T13:52:15Z</time>
      </trkpt>
      <trkpt lat="45.27417" lon="4.5501">
        <ele>929.17</ele>
        <time>2022-06-24T13:52:17Z</time>
      </trkpt>
      <trkpt lat="45.27457" lon="4.55021">
        <ele>926.91</ele>
        <time>2022-06-24T13:52:34Z</time>
      </trkpt>
      <trkpt lat="45.27479" lon="4.55026">
        <ele>923.77</ele>
        <time>2022-06-24T13:52:50Z</time>
      </trkpt>
      <trkpt lat="45.27514" lon="4.55035">
        <ele>921.32</ele>
        <time>2022-06-24T13:53:08Z</time>
      </trkpt>
      <trkpt lat="45.27538" lon="4.55047">
        <ele>919.69</ele>
        <time>2022-06-24T13:53:25Z</time>
      </trkpt>
      <trkpt lat="45.27541" lon="4.55048">
        <ele>919.51</ele>
        <time>2022-06-24T13:53:27Z</time>
      </trkpt>
      <trkpt lat="45.27555" lon="4.55054">
        <ele>918.17</ele>
        <time>2022-06-24T13:53:40Z</time>
      </trkpt>
      <trkpt lat="45.27572" lon="4.55057">
        <ele>916.56</ele>
        <time>2022-06-24T13:53:50Z</time>
      </trkpt>
      <trkpt lat="45.27574" lon="4.55058">
        <ele>916.38</ele>
        <time>2022-06-24T13:53:51Z</time>
      </trkpt>
      <trkpt lat="45.27589" lon="4.55065">
        <ele>914.06</ele>
        <time>2022-06-24T13:54:05Z</time>
      </trkpt>
      <trkpt lat="45.27597" lon="4.55067">
        <ele>912.01</ele>
        <time>2022-06-24T13:54:17Z</time>
      </trkpt>
      <trkpt lat="45.27602" lon="4.55068">
        <ele>911.17</ele>
        <time>2022-06-24T13:54:21Z</time>
      </trkpt>
      <trkpt lat="45.27605" lon="4.55068">
        <ele>910.49</ele>
        <time>2022-06-24T13:54:25Z</time>
      </trkpt>
      <trkpt lat="45.27623" lon="4.55077">
        <ele>908.98</ele>
        <time>2022-06-24T13:54:39Z</time>
      </trkpt>
      <trkpt lat="45.27629" lon="4.5508">
        <ele>907.33</ele>
        <time>2022-06-24T13:54:51Z</time>
      </trkpt>
      <trkpt lat="45.27639" lon="4.55084">
        <ele>905.72</ele>
        <time>2022-06-24T13:55:03Z</time>
      </trkpt>
      <trkpt lat="45.27646" lon="4.55088">
        <ele>904.04</ele>
        <time>2022-06-24T13:55:11Z</time>
      </trkpt>
      <trkpt lat="45.27655" lon="4.55092">
        <ele>902.87</ele>
        <time>2022-06-24T13:55:19Z</time>
      </trkpt>
      <trkpt lat="45.27656" lon="4.55093">
        <ele>902.7</ele>
        <time>2022-06-24T13:55:20Z</time>
      </trkpt>
      <trkpt lat="45.27657" lon="4.55093">
        <ele>902.53</ele>
        <time>2022-06-24T13:55:21Z</time>
      </trkpt>
      <trkpt lat="45.27691" lon="4.55105">
        <ele>900.33</ele>
        <time>2022-06-24T13:55:34Z</time>
      </trkpt>
      <trkpt lat="45.2771" lon="4.55117">
        <ele>899.69</ele>
        <time>2022-06-24T13:55:46Z</time>
      </trkpt>
      <trkpt lat="45.27714" lon="4.55116">
        <ele>899.57</ele>
        <time>2022-06-24T13:56:27Z</time>
      </trkpt>
      <trkpt lat="45.27714" lon="4.55119">
        <ele>899.67</ele>
        <time>2022-06-24T13:56:45Z</time>
      </trkpt>
      <trkpt lat="45.27711" lon="4.55119">
        <ele>901.13</ele>
        <time>2022-06-24T13:56:52Z</time>
      </trkpt>
      <trkpt lat="45.27701" lon="4.55126">
        <ele>903.5</ele>
        <time>2022-06-24T13:57:13Z</time>
      </trkpt>
      <trkpt lat="45.27695" lon="4.55129">
        <ele>903.54</ele>
        <time>2022-06-24T13:57:39Z</time>
      </trkpt>
      <trkpt lat="45.27694" lon="4.55133">
        <ele>903.73</ele>
        <time>2022-06-24T13:58:04Z</time>
      </trkpt>
      <trkpt lat="45.27689" lon="4.55137">
        <ele>906.29</ele>
        <time>2022-06-24T13:58:29Z</time>
      </trkpt>
      <trkpt lat="45.27688" lon="4.55141">
        <ele>906.91</ele>
        <time>2022-06-24T13:59:01Z</time>
      </trkpt>
      <trkpt lat="45.27687" lon="4.55143">
        <ele>906.98</ele>
        <time>2022-06-24T13:59:03Z</time>
      </trkpt>
      <trkpt lat="45.27685" lon="4.55149">
        <ele>910.01</ele>
        <time>2022-06-24T13:59:17Z</time>
      </trkpt>
      <trkpt lat="45.27681" lon="4.55156">
        <ele>912.86</ele>
        <time>2022-06-24T13:59:33Z</time>
      </trkpt>
      <trkpt lat="45.27672" lon="4.55164">
        <ele>915.22</ele>
        <time>2022-06-24T13:59:47Z</time>
      </trkpt>
      <trkpt lat="45.27668" lon="4.55169">
        <ele>917.27</ele>
        <time>2022-06-24T14:00:01Z</time>
      </trkpt>
      <trkpt lat="45.27661" lon="4.55177">
        <ele>919.5</ele>
        <time>2022-06-24T14:00:14Z</time>
      </trkpt>
      <trkpt lat="45.2766" lon="4.55181">
        <ele>920.92</ele>
        <time>2022-06-24T14:00:32Z</time>
      </trkpt>
      <trkpt lat="45.27656" lon="4.55186">
        <ele>923.94</ele>
        <time>2022-06-24T14:00:49Z</time>
      </trkpt>
      <trkpt lat="45.27651" lon="4.55192">
        <ele>926.94</ele>
        <time>2022-06-24T14:01:07Z</time>
      </trkpt>
      <trkpt lat="45.2765" lon="4.55193">
        <ele>927.08</ele>
        <time>2022-06-24T14:01:09Z</time>
      </trkpt>
      <trkpt lat="45.2764" lon="4.55201">
        <ele>929.15</ele>
        <time>2022-06-24T14:01:28Z</time>
      </trkpt>
      <trkpt lat="45.2763" lon="4.55208">
        <ele>931.57</ele>
        <time>2022-06-24T14:01:47Z</time>
      </trkpt>
      <trkpt lat="45.27622" lon="4.55218">
        <ele>934.66</ele>
        <time>2022-06-24T14:02:04Z</time>
      </trkpt>
      <trkpt lat="45.27605" lon="4.55233">
        <ele>937.27</ele>
        <time>2022-06-24T14:02:23Z</time>
      </trkpt>
      <trkpt lat="45.2759" lon="4.55246">
        <ele>939.29</ele>
        <time>2022-06-24T14:02:40Z</time>
      </trkpt>
      <trkpt lat="45.27576" lon="4.55253">
        <ele>941.27</ele>
        <time>2022-06-24T14:02:55Z</time>
      </trkpt>
      <trkpt lat="45.27563" lon="4.55262">
        <ele>943.69</ele>
        <time>2022-06-24T14:03:11Z</time>
      </trkpt>
      <trkpt lat="45.27554" lon="4.55264">
        <ele>945.2</ele>
        <time>2022-06-24T14:03:23Z</time>
      </trkpt>
      <trkpt lat="45.27542" lon="4.55264">
        <ele>946.21</ele>
        <time>2022-06-24T14:03:33Z</time>
      </trkpt>
      <trkpt lat="45.27539" lon="4.55265">
        <ele>947.11</ele>
        <time>2022-06-24T14:03:50Z</time>
      </trkpt>
      <trkpt lat="45.27529" lon="4.55265">
        <ele>946.44</ele>
        <time>2022-06-24T14:04:20Z</time>
      </trkpt>
      <trkpt lat="45.27519" lon="4.55265">
        <ele>946.62</ele>
        <time>2022-06-24T14:04:35Z</time>
      </trkpt>
      <trkpt lat="45.27511" lon="4.55267">
        <ele>947.41</ele>
        <time>2022-06-24T14:04:44Z</time>
      </trkpt>
      <trkpt lat="45.2751" lon="4.55268">
        <ele>947.47</ele>
        <time>2022-06-24T14:04:45Z</time>
      </trkpt>
      <trkpt lat="45.27498" lon="4.55277">
        <ele>948.25</ele>
        <time>2022-06-24T14:04:57Z</time>
      </trkpt>
      <trkpt lat="45.27482" lon="4.55289">
        <ele>950.6</ele>
        <time>2022-06-24T14:05:11Z</time>
      </trkpt>
      <trkpt lat="45.27474" lon="4.55293">
        <ele>951.67</ele>
        <time>2022-06-24T14:05:18Z</time>
      </trkpt>
      <trkpt lat="45.27466" lon="4.55299">
        <ele>952.71</ele>
        <time>2022-06-24T14:05:28Z</time>
      </trkpt>
      <trkpt lat="45.27452" lon="4.553">
        <ele>953.22</ele>
        <time>2022-06-24T14:05:39Z</time>
      </trkpt>
      <trkpt lat="45.27435" lon="4.55296">
        <ele>953.95</ele>
        <time>2022-06-24T14:05:50Z</time>
      </trkpt>
      <trkpt lat="45.27427" lon="4.55294">
        <ele>953.97</ele>
        <time>2022-06-24T14:05:57Z</time>
      </trkpt>
      <trkpt lat="45.27422" lon="4.55294">
        <ele>953.92</ele>
        <time>2022-06-24T14:06:00Z</time>
      </trkpt>
      <trkpt lat="45.2742" lon="4.55294">
        <ele>953.91</ele>
        <time>2022-06-24T14:06:01Z</time>
      </trkpt>
      <trkpt lat="45.27417" lon="4.55294">
        <ele>953.94</ele>
        <time>2022-06-24T14:06:02Z</time>
      </trkpt>
      <trkpt lat="45.27416" lon="4.55292">
        <ele>954.02</ele>
        <time>2022-06-24T14:06:03Z</time>
      </trkpt>
      <trkpt lat="45.27414" lon="4.55292">
        <ele>954.15</ele>
        <time>2022-06-24T14:06:04Z</time>
      </trkpt>
      <trkpt lat="45.27396" lon="4.5529">
        <ele>954.88</ele>
        <time>2022-06-24T14:06:16Z</time>
      </trkpt>
      <trkpt lat="45.27383" lon="4.55292">
        <ele>955.49</ele>
        <time>2022-06-24T14:06:26Z</time>
      </trkpt>
      <trkpt lat="45.27375" lon="4.55295">
        <ele>956.1</ele>
        <time>2022-06-24T14:06:35Z</time>
      </trkpt>
      <trkpt lat="45.27363" lon="4.55303">
        <ele>957.22</ele>
        <time>2022-06-24T14:06:46Z</time>
      </trkpt>
      <trkpt lat="45.2735" lon="4.5531">
        <ele>957.98</ele>
        <time>2022-06-24T14:06:55Z</time>
      </trkpt>
      <trkpt lat="45.27336" lon="4.55321">
        <ele>958.39</ele>
        <time>2022-06-24T14:07:07Z</time>
      </trkpt>
      <trkpt lat="45.27322" lon="4.55343">
        <ele>958.68</ele>
        <time>2022-06-24T14:07:20Z</time>
      </trkpt>
      <trkpt lat="45.27312" lon="4.55369">
        <ele>958.63</ele>
        <time>2022-06-24T14:07:33Z</time>
      </trkpt>
      <trkpt lat="45.27305" lon="4.55385">
        <ele>957.74</ele>
        <time>2022-06-24T14:07:44Z</time>
      </trkpt>
      <trkpt lat="45.27296" lon="4.55412">
        <ele>955.87</ele>
        <time>2022-06-24T14:07:58Z</time>
      </trkpt>
      <trkpt lat="45.27289" lon="4.55431">
        <ele>954.11</ele>
        <time>2022-06-24T14:08:10Z</time>
      </trkpt>
      <trkpt lat="45.2728" lon="4.5546">
        <ele>951.91</ele>
        <time>2022-06-24T14:08:24Z</time>
      </trkpt>
      <trkpt lat="45.27271" lon="4.55487">
        <ele>949.77</ele>
        <time>2022-06-24T14:08:37Z</time>
      </trkpt>
      <trkpt lat="45.27261" lon="4.55517">
        <ele>946.88</ele>
        <time>2022-06-24T14:08:51Z</time>
      </trkpt>
      <trkpt lat="45.27251" lon="4.55542">
        <ele>944.93</ele>
        <time>2022-06-24T14:09:04Z</time>
      </trkpt>
      <trkpt lat="45.27245" lon="4.55558">
        <ele>943.69</ele>
        <time>2022-06-24T14:09:14Z</time>
      </trkpt>
      <trkpt lat="45.27245" lon="4.5556">
        <ele>943.53</ele>
        <time>2022-06-24T14:09:15Z</time>
      </trkpt>
      <trkpt lat="45.27244" lon="4.55562">
        <ele>943.37</ele>
        <time>2022-06-24T14:09:16Z</time>
      </trkpt>
      <trkpt lat="45.27242" lon="4.55569">
        <ele>942.51</ele>
        <time>2022-06-24T14:09:21Z</time>
      </trkpt>
      <trkpt lat="45.27241" lon="4.5557">
        <ele>942.39</ele>
        <time>2022-06-24T14:09:22Z</time>
      </trkpt>
      <trkpt lat="45.27239" lon="4.55571">
        <ele>942.3</ele>
        <time>2022-06-24T14:09:23Z</time>
      </trkpt>
      <trkpt lat="45.27238" lon="4.55571">
        <ele>942.24</ele>
        <time>2022-06-24T14:09:24Z</time>
      </trkpt>
      <trkpt lat="45.27237" lon="4.55571">
        <ele>942.19</ele>
        <time>2022-06-24T14:09:25Z</time>
      </trkpt>
      <trkpt lat="45.27236" lon="4.5557">
        <ele>942.11</ele>
        <time>2022-06-24T14:09:26Z</time>
      </trkpt>
      <trkpt lat="45.27235" lon="4.5557">
        <ele>941.99</ele>
        <time>2022-06-24T14:09:27Z</time>
      </trkpt>
      <trkpt lat="45.27228" lon="4.55568">
        <ele>940.98</ele>
        <time>2022-06-24T14:09:33Z</time>
      </trkpt>
      <trkpt lat="45.27227" lon="4.55566">
        <ele>940.8</ele>
        <time>2022-06-24T14:09:34Z</time>
      </trkpt>
      <trkpt lat="45.27226" lon="4.55565">
        <ele>940.63</ele>
        <time>2022-06-24T14:09:35Z</time>
      </trkpt>
      <trkpt lat="45.27219" lon="4.55567">
        <ele>939.3</ele>
        <time>2022-06-24T14:09:45Z</time>
      </trkpt>
      <trkpt lat="45.27212" lon="4.55569">
        <ele>937.25</ele>
        <time>2022-06-24T14:10:02Z</time>
      </trkpt>
      <trkpt lat="45.27214" lon="4.55572">
        <ele>936.82</ele>
        <time>2022-06-24T14:10:13Z</time>
      </trkpt>
      <trkpt lat="45.27208" lon="4.55579">
        <ele>936.9</ele>
        <time>2022-06-24T14:10:50Z</time>
      </trkpt>
      <trkpt lat="45.27201" lon="4.55572">
        <ele>935.97</ele>
        <time>2022-06-24T14:11:06Z</time>
      </trkpt>
      <trkpt lat="45.27203" lon="4.55571">
        <ele>936.34</ele>
        <time>2022-06-24T14:11:29Z</time>
      </trkpt>
      <trkpt lat="45.27204" lon="4.55573">
        <ele>936.53</ele>
        <time>2022-06-24T14:11:56Z</time>
      </trkpt>
      <trkpt lat="45.27205" lon="4.55571">
        <ele>936.53</ele>
        <time>2022-06-24T14:12:23Z</time>
      </trkpt>
      <trkpt lat="45.27208" lon="4.55572">
        <ele>936.53</ele>
        <time>2022-06-24T14:12:52Z</time>
      </trkpt>
      <trkpt lat="45.27209" lon="4.55572">
        <ele>936.53</ele>
        <time>2022-06-24T14:13:18Z</time>
      </trkpt>
      <trkpt lat="45.27208" lon="4.55572">
        <ele>936.53</ele>
        <time>2022-06-24T14:13:44Z</time>
      </trkpt>
      <trkpt lat="45.27208" lon="4.55573">
        <ele>936.53</ele>
        <time>2022-06-24T14:14:11Z</time>
      </trkpt>
      <trkpt lat="45.27206" lon="4.55574">
        <ele>936.53</ele>
        <time>2022-06-24T14:14:39Z</time>
      </trkpt>
      <trkpt lat="45.27208" lon="4.55575">
        <ele>936.53</ele>
        <time>2022-06-24T14:15:08Z</time>
      </trkpt>
      <trkpt lat="45.27204" lon="4.55575">
        <ele>936.53</ele>
        <time>2022-06-24T14:15:35Z</time>
      </trkpt>
      <trkpt lat="45.27207" lon="4.55572">
        <ele>936.53</ele>
        <time>2022-06-24T14:16:01Z</time>
      </trkpt>
      <trkpt lat="45.27203" lon="4.5557">
        <ele>936.53</ele>
        <time>2022-06-24T14:16:10Z</time>
      </trkpt>
      <trkpt lat="45.27201" lon="4.55569">
        <ele>936.53</ele>
        <time>2022-06-24T14:16:11Z</time>
      </trkpt>
      <trkpt lat="45.272" lon="4.55568">
        <ele>936.53</ele>
        <time>2022-06-24T14:16:12Z</time>
      </trkpt>
      <trkpt lat="45.27198" lon="4.55567">
        <ele>936.53</ele>
        <time>2022-06-24T14:16:13Z</time>
      </trkpt>
      <trkpt lat="45.27196" lon="4.55566">
        <ele>936.53</ele>
        <time>2022-06-24T14:16:14Z</time>
      </trkpt>
      <trkpt lat="45.27194" lon="4.55564">
        <ele>936.39</ele>
        <time>2022-06-24T14:16:15Z</time>
      </trkpt>
      <trkpt lat="45.27179" lon="4.55542">
        <ele>935.34</ele>
        <time>2022-06-24T14:16:27Z</time>
      </trkpt>
      <trkpt lat="45.27162" lon="4.55513">
        <ele>934.27</ele>
        <time>2022-06-24T14:16:42Z</time>
      </trkpt>
      <trkpt lat="45.27144" lon="4.55491">
        <ele>932.97</ele>
        <time>2022-06-24T14:16:57Z</time>
      </trkpt>
      <trkpt lat="45.27119" lon="4.55464">
        <ele>932.1</ele>
        <time>2022-06-24T14:17:17Z</time>
      </trkpt>
      <trkpt lat="45.27114" lon="4.55456">
        <ele>931.21</ele>
        <time>2022-06-24T14:17:23Z</time>
      </trkpt>
      <trkpt lat="45.27103" lon="4.55442">
        <ele>931.31</ele>
        <time>2022-06-24T14:17:33Z</time>
      </trkpt>
      <trkpt lat="45.27081" lon="4.55417">
        <ele>930.64</ele>
        <time>2022-06-24T14:17:47Z</time>
      </trkpt>
      <trkpt lat="45.27055" lon="4.55406">
        <ele>929.84</ele>
        <time>2022-06-24T14:18:00Z</time>
      </trkpt>
      <trkpt lat="45.2704" lon="4.55399">
        <ele>928.83</ele>
        <time>2022-06-24T14:18:11Z</time>
      </trkpt>
      <trkpt lat="45.27033" lon="4.55394">
        <ele>928.5</ele>
        <time>2022-06-24T14:18:17Z</time>
      </trkpt>
      <trkpt lat="45.27031" lon="4.55393">
        <ele>928.47</ele>
        <time>2022-06-24T14:18:18Z</time>
      </trkpt>
      <trkpt lat="45.2703" lon="4.55392">
        <ele>928.45</ele>
        <time>2022-06-24T14:18:19Z</time>
      </trkpt>
      <trkpt lat="45.27003" lon="4.55384">
        <ele>928.11</ele>
        <time>2022-06-24T14:18:32Z</time>
      </trkpt>
      <trkpt lat="45.26994" lon="4.55376">
        <ele>927.36</ele>
        <time>2022-06-24T14:18:40Z</time>
      </trkpt>
      <trkpt lat="45.26982" lon="4.55365">
        <ele>926.26</ele>
        <time>2022-06-24T14:18:51Z</time>
      </trkpt>
      <trkpt lat="45.26964" lon="4.55354">
        <ele>925.17</ele>
        <time>2022-06-24T14:19:03Z</time>
      </trkpt>
      <trkpt lat="45.26937" lon="4.55335">
        <ele>923.92</ele>
        <time>2022-06-24T14:19:18Z</time>
      </trkpt>
      <trkpt lat="45.26922" lon="4.55323">
        <ele>922.96</ele>
        <time>2022-06-24T14:19:29Z</time>
      </trkpt>
      <trkpt lat="45.26912" lon="4.55329">
        <ele>921.73</ele>
        <time>2022-06-24T14:19:40Z</time>
      </trkpt>
      <trkpt lat="45.26918" lon="4.55356">
        <ele>920.24</ele>
        <time>2022-06-24T14:19:51Z</time>
      </trkpt>
      <trkpt lat="45.26926" lon="4.55399">
        <ele>918.45</ele>
        <time>2022-06-24T14:20:10Z</time>
      </trkpt>
      <trkpt lat="45.26934" lon="4.55429">
        <ele>917.35</ele>
        <time>2022-06-24T14:20:24Z</time>
      </trkpt>
      <trkpt lat="45.26949" lon="4.55456">
        <ele>915.83</ele>
        <time>2022-06-24T14:20:39Z</time>
      </trkpt>
      <trkpt lat="45.26964" lon="4.55477">
        <ele>914.23</ele>
        <time>2022-06-24T14:20:53Z</time>
      </trkpt>
      <trkpt lat="45.26981" lon="4.55491">
        <ele>912.58</ele>
        <time>2022-06-24T14:21:06Z</time>
      </trkpt>
      <trkpt lat="45.26999" lon="4.55507">
        <ele>910.88</ele>
        <time>2022-06-24T14:21:20Z</time>
      </trkpt>
      <trkpt lat="45.27011" lon="4.55526">
        <ele>909.35</ele>
        <time>2022-06-24T14:21:32Z</time>
      </trkpt>
      <trkpt lat="45.27019" lon="4.55547">
        <ele>907.58</ele>
        <time>2022-06-24T14:21:45Z</time>
      </trkpt>
      <trkpt lat="45.27015" lon="4.55559">
        <ele>905.95</ele>
        <time>2022-06-24T14:21:57Z</time>
      </trkpt>
      <trkpt lat="45.27012" lon="4.55575">
        <ele>902.89</ele>
        <time>2022-06-24T14:22:07Z</time>
      </trkpt>
      <trkpt lat="45.27009" lon="4.55599">
        <ele>899.7</ele>
        <time>2022-06-24T14:22:17Z</time>
      </trkpt>
      <trkpt lat="45.27007" lon="4.55624">
        <ele>896.59</ele>
        <time>2022-06-24T14:22:29Z</time>
      </trkpt>
      <trkpt lat="45.27005" lon="4.5564">
        <ele>895.81</ele>
        <time>2022-06-24T14:22:39Z</time>
      </trkpt>
      <trkpt lat="45.27005" lon="4.55642">
        <ele>895.78</ele>
        <time>2022-06-24T14:22:40Z</time>
      </trkpt>
      <trkpt lat="45.27005" lon="4.55644">
        <ele>895.72</ele>
        <time>2022-06-24T14:22:41Z</time>
      </trkpt>
      <trkpt lat="45.27004" lon="4.55668">
        <ele>893.29</ele>
        <time>2022-06-24T14:22:55Z</time>
      </trkpt>
      <trkpt lat="45.27001" lon="4.55698">
        <ele>891.36</ele>
        <time>2022-06-24T14:23:10Z</time>
      </trkpt>
      <trkpt lat="45.26992" lon="4.55728">
        <ele>889.1</ele>
        <time>2022-06-24T14:23:24Z</time>
      </trkpt>
      <trkpt lat="45.26987" lon="4.55751">
        <ele>886.89</ele>
        <time>2022-06-24T14:23:35Z</time>
      </trkpt>
      <trkpt lat="45.26984" lon="4.55777">
        <ele>884.4</ele>
        <time>2022-06-24T14:23:48Z</time>
      </trkpt>
      <trkpt lat="45.26981" lon="4.55798">
        <ele>882.09</ele>
        <time>2022-06-24T14:23:59Z</time>
      </trkpt>
      <trkpt lat="45.26981" lon="4.55812">
        <ele>880.64</ele>
        <time>2022-06-24T14:24:07Z</time>
      </trkpt>
      <trkpt lat="45.2698" lon="4.55815">
        <ele>880.51</ele>
        <time>2022-06-24T14:24:08Z</time>
      </trkpt>
      <trkpt lat="45.26974" lon="4.55845">
        <ele>878.78</ele>
        <time>2022-06-24T14:24:21Z</time>
      </trkpt>
      <trkpt lat="45.26967" lon="4.55874">
        <ele>876.59</ele>
        <time>2022-06-24T14:24:34Z</time>
      </trkpt>
      <trkpt lat="45.2696" lon="4.55899">
        <ele>874.36</ele>
        <time>2022-06-24T14:24:47Z</time>
      </trkpt>
      <trkpt lat="45.26954" lon="4.55925">
        <ele>872.7</ele>
        <time>2022-06-24T14:24:59Z</time>
      </trkpt>
      <trkpt lat="45.26954" lon="4.55954">
        <ele>871.13</ele>
        <time>2022-06-24T14:25:12Z</time>
      </trkpt>
      <trkpt lat="45.26957" lon="4.55975">
        <ele>869.9</ele>
        <time>2022-06-24T14:25:23Z</time>
      </trkpt>
      <trkpt lat="45.26959" lon="4.56006">
        <ele>868.76</ele>
        <time>2022-06-24T14:25:37Z</time>
      </trkpt>
      <trkpt lat="45.26962" lon="4.56029">
        <ele>867.97</ele>
        <time>2022-06-24T14:25:48Z</time>
      </trkpt>
      <trkpt lat="45.26962" lon="4.56032">
        <ele>867.89</ele>
        <time>2022-06-24T14:26:03Z</time>
      </trkpt>
      <trkpt lat="45.26963" lon="4.56035">
        <ele>867.89</ele>
        <time>2022-06-24T14:26:06Z</time>
      </trkpt>
      <trkpt lat="45.26963" lon="4.56038">
        <ele>867.88</ele>
        <time>2022-06-24T14:26:07Z</time>
      </trkpt>
      <trkpt lat="45.26971" lon="4.56068">
        <ele>867.2</ele>
        <time>2022-06-24T14:26:22Z</time>
      </trkpt>
      <trkpt lat="45.26976" lon="4.56096">
        <ele>866.69</ele>
        <time>2022-06-24T14:26:34Z</time>
      </trkpt>
      <trkpt lat="45.2698" lon="4.56122">
        <ele>866.09</ele>
        <time>2022-06-24T14:26:46Z</time>
      </trkpt>
      <trkpt lat="45.26983" lon="4.5615">
        <ele>865.58</ele>
        <time>2022-06-24T14:26:58Z</time>
      </trkpt>
      <trkpt lat="45.26984" lon="4.56177">
        <ele>865.28</ele>
        <time>2022-06-24T14:27:11Z</time>
      </trkpt>
      <trkpt lat="45.26986" lon="4.5619">
        <ele>864.9</ele>
        <time>2022-06-24T14:27:20Z</time>
      </trkpt>
      <trkpt lat="45.26985" lon="4.56196">
        <ele>864.83</ele>
        <time>2022-06-24T14:27:23Z</time>
      </trkpt>
      <trkpt lat="45.26985" lon="4.56199">
        <ele>864.8</ele>
        <time>2022-06-24T14:27:24Z</time>
      </trkpt>
      <trkpt lat="45.26985" lon="4.56201">
        <ele>864.71</ele>
        <time>2022-06-24T14:27:25Z</time>
      </trkpt>
      <trkpt lat="45.26984" lon="4.56204">
        <ele>864.61</ele>
        <time>2022-06-24T14:27:26Z</time>
      </trkpt>
      <trkpt lat="45.26984" lon="4.56207">
        <ele>864.55</ele>
        <time>2022-06-24T14:27:27Z</time>
      </trkpt>
      <trkpt lat="45.26984" lon="4.56209">
        <ele>864.52</ele>
        <time>2022-06-24T14:27:28Z</time>
      </trkpt>
      <trkpt lat="45.26981" lon="4.56244">
        <ele>864.58</ele>
        <time>2022-06-24T14:27:42Z</time>
      </trkpt>
      <trkpt lat="45.26981" lon="4.56281">
        <ele>864.42</ele>
        <time>2022-06-24T14:27:59Z</time>
      </trkpt>
      <trkpt lat="45.26985" lon="4.56316">
        <ele>864.09</ele>
        <time>2022-06-24T14:28:15Z</time>
      </trkpt>
      <trkpt lat="45.26987" lon="4.56342">
        <ele>864.1</ele>
        <time>2022-06-24T14:28:27Z</time>
      </trkpt>
      <trkpt lat="45.26988" lon="4.5637">
        <ele>864.2</ele>
        <time>2022-06-24T14:28:39Z</time>
      </trkpt>
      <trkpt lat="45.26993" lon="4.56403">
        <ele>864.48</ele>
        <time>2022-06-24T14:28:54Z</time>
      </trkpt>
      <trkpt lat="45.26994" lon="4.56434">
        <ele>864.25</ele>
        <time>2022-06-24T14:29:08Z</time>
      </trkpt>
      <trkpt lat="45.26994" lon="4.5644">
        <ele>864.17</ele>
        <time>2022-06-24T14:29:11Z</time>
      </trkpt>
      <trkpt lat="45.26994" lon="4.56442">
        <ele>864.15</ele>
        <time>2022-06-24T14:29:12Z</time>
      </trkpt>
      <trkpt lat="45.26994" lon="4.56469">
        <ele>863.58</ele>
        <time>2022-06-24T14:29:24Z</time>
      </trkpt>
      <trkpt lat="45.26994" lon="4.56491">
        <ele>863.12</ele>
        <time>2022-06-24T14:29:34Z</time>
      </trkpt>
      <trkpt lat="45.27" lon="4.56496">
        <ele>862.84</ele>
        <time>2022-06-24T14:29:44Z</time>
      </trkpt>
      <trkpt lat="45.26999" lon="4.56497">
        <ele>862.91</ele>
        <time>2022-06-24T14:29:50Z</time>
      </trkpt>
    </trkseg>
  </trk>
</gpx>